ELY197 LLBG-MPTO
Flight info
| Callsign | ELY197 |
|---|---|
| Flight time | N/A |
| Altitude | 34000 |
| Route | SUVAS N128 OTHON UN128 YOYYO UN618 IMR/N0472F360 UN128 LMO DCT EVIVI L863 OKANA DCT NIVIS DCT BABIT DCT SOGMO DCT SASAL DCT DEXIT DCT INBED DCT BOMBI DCT ADKUV DCT BUB L608 DENUT L610 KOPUL Q60 OKSAW DCT FELCA/N0470F380 DCT FADZU DCT BANBA DCT DINIM/M082F380 DCT 51N020W 51N030W 51N040W 49N050W DCT JOOPY DCT JEBBY/M082F400 DCT 4060N DCT RNGRS DCT VINSO DCT LUCTI/N0468F400 DCT 2370N DCT GTK G444 ONGAN UG444 LIDOL UM597 AGUJA LODOP1C |
| Aircraft | B772/H-SDE2E3FGHIJ5LORVWXY/LB1D1 |
Departure
| Time | 2026-05-05 23:28 |
|---|---|
| Airport | Ben Gurion International Airport (LLBG) |
Arrival
| Time | N/A |
|---|---|
| Airport | Tocumen International Airport (MPTO) |
| Time | Latitude | Longitude | Altitude | Speed | Heading |
|---|---|---|---|---|---|
| 2026-05-05 23:20 | 32.00320 | 34.87629 | 124 ft | 0 kts | 316° |
| 2026-05-05 23:20 | 32.00304 | 34.87647 | 119 ft | 4 kts | 315° |
| 2026-05-05 23:21 | 32.00288 | 34.87666 | 124 ft | 2 kts | 312° |
| 2026-05-05 23:21 | 32.00271 | 34.87684 | 119 ft | 4 kts | 351° |
| 2026-05-05 23:21 | 32.00258 | 34.87683 | 124 ft | 0 kts | 28° |
| 2026-05-05 23:21 | 32.00259 | 34.87683 | 124 ft | 0 kts | 28° |
| 2026-05-05 23:23 | 32.00271 | 34.87691 | 124 ft | 11 kts | 28° |
| 2026-05-05 23:23 | 32.00352 | 34.87747 | 123 ft | 14 kts | 31° |
| 2026-05-05 23:23 | 32.00434 | 34.87805 | 124 ft | 14 kts | 31° |
| 2026-05-05 23:24 | 32.00516 | 34.87862 | 121 ft | 14 kts | 31° |
| 2026-05-05 23:24 | 32.00611 | 34.87930 | 119 ft | 19 kts | 31° |
| 2026-05-05 23:24 | 32.00719 | 34.88013 | 120 ft | 19 kts | 34° |
| 2026-05-05 23:24 | 32.00830 | 34.88099 | 120 ft | 19 kts | 30° |
| 2026-05-05 23:25 | 32.00946 | 34.88180 | 120 ft | 20 kts | 31° |
| 2026-05-05 23:25 | 32.01062 | 34.88261 | 120 ft | 20 kts | 31° |
| 2026-05-05 23:25 | 32.01182 | 34.88345 | 121 ft | 20 kts | 30° |
| 2026-05-05 23:25 | 32.01301 | 34.88447 | 119 ft | 23 kts | 42° |
| 2026-05-05 23:26 | 32.01414 | 34.88598 | 120 ft | 25 kts | 58° |
| 2026-05-05 23:26 | 32.01485 | 34.88782 | 122 ft | 25 kts | 78° |
| 2026-05-05 23:26 | 32.01517 | 34.88981 | 119 ft | 25 kts | 79° |
| 2026-05-05 23:26 | 32.01549 | 34.89182 | 120 ft | 25 kts | 79° |
| 2026-05-05 23:27 | 32.01581 | 34.89381 | 121 ft | 25 kts | 79° |
| 2026-05-05 23:27 | 32.01614 | 34.89581 | 122 ft | 25 kts | 77° |
| 2026-05-05 23:27 | 32.01716 | 34.89735 | 119 ft | 25 kts | 33° |
| 2026-05-05 23:27 | 32.01834 | 34.89766 | 117 ft | 15 kts | 309° |
| 2026-05-05 23:28 | 32.01824 | 34.89606 | 122 ft | 43 kts | 259° |
| 2026-05-05 23:28 | 32.01721 | 34.88922 | 124 ft | 125 kts | 260° |
| 2026-05-05 23:28 | 32.01525 | 34.87634 | 181 ft | 188 kts | 261° |
| 2026-05-05 23:28 | 32.01280 | 34.86077 | 1011 ft | 195 kts | 259° |
| 2026-05-05 23:29 | 32.01029 | 34.84511 | 2155 ft | 191 kts | 258° |
| 2026-05-05 23:29 | 32.00727 | 34.83011 | 3034 ft | 187 kts | 257° |
| 2026-05-05 23:29 | 32.00406 | 34.81510 | 3487 ft | 190 kts | 256° |
| 2026-05-05 23:29 | 32.00076 | 34.79966 | 3765 ft | 203 kts | 257° |
| 2026-05-05 23:30 | 31.99720 | 34.78292 | 3929 ft | 219 kts | 256° |
| 2026-05-05 23:30 | 31.99338 | 34.76488 | 4179 ft | 236 kts | 257° |
| 2026-05-05 23:30 | 31.99213 | 34.74524 | 4319 ft | 249 kts | 284° |
| 2026-05-05 23:30 | 31.99844 | 34.72605 | 4688 ft | 255 kts | 291° |
| 2026-05-05 23:31 | 32.00485 | 34.70633 | 5534 ft | 259 kts | 289° |
| 2026-05-05 23:31 | 32.01104 | 34.68623 | 6425 ft | 263 kts | 289° |
| 2026-05-05 23:31 | 32.01734 | 34.66583 | 7305 ft | 266 kts | 289° |
| 2026-05-05 23:31 | 32.02368 | 34.64544 | 8169 ft | 269 kts | 289° |
| 2026-05-05 23:32 | 32.02825 | 34.62401 | 8902 ft | 272 kts | 275° |
| 2026-05-05 23:32 | 32.02933 | 34.60173 | 9682 ft | 277 kts | 271° |
| 2026-05-05 23:32 | 32.02998 | 34.58059 | 10458 ft | 277 kts | 272° |
| 2026-05-05 23:32 | 32.03091 | 34.55735 | 10526 ft | 300 kts | 272° |
| 2026-05-05 23:33 | 32.03210 | 34.53237 | 10715 ft | 320 kts | 273° |
| 2026-05-05 23:33 | 32.03345 | 34.50541 | 10922 ft | 339 kts | 273° |
| 2026-05-05 23:33 | 32.03491 | 34.47767 | 11407 ft | 348 kts | 273° |
| 2026-05-05 23:33 | 32.03642 | 34.44896 | 12027 ft | 354 kts | 273° |
| 2026-05-05 23:34 | 32.03803 | 34.41987 | 12757 ft | 357 kts | 273° |
| 2026-05-05 23:34 | 32.03972 | 34.39045 | 13430 ft | 363 kts | 273° |
| 2026-05-05 23:34 | 32.04146 | 34.36061 | 14134 ft | 367 kts | 273° |
| 2026-05-05 23:34 | 32.04319 | 34.33051 | 14857 ft | 369 kts | 273° |
| 2026-05-05 23:35 | 32.04491 | 34.30033 | 15591 ft | 371 kts | 273° |
| 2026-05-05 23:35 | 32.04663 | 34.26983 | 16301 ft | 374 kts | 273° |
| 2026-05-05 23:35 | 32.04878 | 34.24012 | 16912 ft | 375 kts | 278° |
| 2026-05-05 23:35 | 32.05699 | 34.21160 | 17366 ft | 385 kts | 298° |
| 2026-05-05 23:36 | 32.07132 | 34.18489 | 17871 ft | 389 kts | 300° |
| 2026-05-05 23:36 | 32.08563 | 34.15762 | 18529 ft | 392 kts | 299° |
| 2026-05-05 23:36 | 32.09963 | 34.13015 | 19267 ft | 391 kts | 298° |
| 2026-05-05 23:36 | 32.11356 | 34.10262 | 20011 ft | 391 kts | 298° |
| 2026-05-05 23:37 | 32.12751 | 34.07498 | 20705 ft | 392 kts | 298° |
| 2026-05-05 23:37 | 32.14151 | 34.04730 | 21349 ft | 395 kts | 298° |
| 2026-05-05 23:37 | 32.15565 | 34.01945 | 22000 ft | 397 kts | 298° |
| 2026-05-05 23:37 | 32.16986 | 33.99143 | 22649 ft | 400 kts | 298° |
| 2026-05-05 23:38 | 32.18470 | 33.96471 | 23229 ft | 403 kts | 301° |
| 2026-05-05 23:38 | 32.20092 | 33.93767 | 23781 ft | 406 kts | 302° |
| 2026-05-05 23:38 | 32.21761 | 33.91056 | 24241 ft | 409 kts | 302° |
| 2026-05-05 23:38 | 32.23443 | 33.88327 | 24688 ft | 412 kts | 302° |
| 2026-05-05 23:39 | 32.25132 | 33.85578 | 25139 ft | 414 kts | 302° |
| 2026-05-05 23:39 | 32.26817 | 33.82817 | 25587 ft | 416 kts | 302° |
| 2026-05-05 23:39 | 32.28505 | 33.80030 | 26000 ft | 419 kts | 302° |
| 2026-05-05 23:39 | 32.30202 | 33.77222 | 26420 ft | 421 kts | 302° |
| 2026-05-05 23:40 | 32.31901 | 33.74397 | 26823 ft | 423 kts | 301° |
| 2026-05-05 23:40 | 32.33606 | 33.71555 | 27220 ft | 425 kts | 301° |
| 2026-05-05 23:40 | 32.35315 | 33.68706 | 27596 ft | 427 kts | 301° |
| 2026-05-05 23:40 | 32.37036 | 33.65833 | 27954 ft | 429 kts | 302° |
| 2026-05-05 23:41 | 32.38760 | 33.62950 | 28299 ft | 432 kts | 301° |
| 2026-05-05 23:41 | 32.40504 | 33.60033 | 28640 ft | 434 kts | 301° |
| 2026-05-05 23:41 | 32.42227 | 33.57151 | 28975 ft | 436 kts | 301° |
| 2026-05-05 23:41 | 32.43997 | 33.54188 | 29291 ft | 438 kts | 301° |
| 2026-05-05 23:42 | 32.45757 | 33.51237 | 29605 ft | 440 kts | 301° |
| 2026-05-05 23:42 | 32.47504 | 33.48309 | 29990 ft | 443 kts | 301° |
| 2026-05-05 23:42 | 32.49284 | 33.45321 | 30318 ft | 445 kts | 301° |
| 2026-05-05 23:42 | 32.51070 | 33.42322 | 30648 ft | 445 kts | 301° |
| 2026-05-05 23:43 | 32.52854 | 33.39325 | 31054 ft | 444 kts | 301° |
| 2026-05-05 23:43 | 32.54632 | 33.36336 | 31501 ft | 442 kts | 301° |
| 2026-05-05 23:43 | 32.56401 | 33.33359 | 31921 ft | 441 kts | 301° |
| 2026-05-05 23:43 | 32.58164 | 33.30388 | 32296 ft | 440 kts | 301° |
| 2026-05-05 23:44 | 32.59925 | 33.27418 | 32663 ft | 439 kts | 301° |
| 2026-05-05 23:44 | 32.61679 | 33.24459 | 33026 ft | 439 kts | 301° |
| 2026-05-05 23:44 | 32.63431 | 33.21503 | 33355 ft | 437 kts | 301° |
| 2026-05-05 23:44 | 32.65175 | 33.18554 | 33586 ft | 437 kts | 301° |
| 2026-05-05 23:45 | 32.66918 | 33.15605 | 33819 ft | 437 kts | 301° |
| 2026-05-05 23:45 | 32.68671 | 33.12633 | 33966 ft | 439 kts | 301° |
| 2026-05-05 23:45 | 32.72192 | 33.06660 | 34078 ft | 444 kts | 301° |
| 2026-05-05 23:46 | 32.75752 | 33.00615 | 34057 ft | 448 kts | 302° |
| 2026-05-05 23:46 | 32.79305 | 32.94575 | 34053 ft | 450 kts | 302° |
| 2026-05-05 23:47 | 32.82892 | 32.88469 | 34052 ft | 450 kts | 302° |
| 2026-05-05 23:47 | 32.86460 | 32.82383 | 34043 ft | 447 kts | 302° |
| 2026-05-05 23:48 | 32.90002 | 32.76332 | 34045 ft | 444 kts | 302° |
| 2026-05-05 23:48 | 32.93522 | 32.70306 | 34048 ft | 442 kts | 302° |
| 2026-05-05 23:49 | 32.97026 | 32.64303 | 34049 ft | 441 kts | 302° |
| 2026-05-05 23:49 | 33.00525 | 32.58292 | 34053 ft | 441 kts | 302° |
| 2026-05-05 23:50 | 33.04022 | 32.52277 | 34045 ft | 442 kts | 302° |
| 2026-05-05 23:50 | 33.07521 | 32.46248 | 34043 ft | 442 kts | 302° |
| 2026-05-05 23:51 | 33.11017 | 32.40217 | 34045 ft | 442 kts | 302° |
| 2026-05-05 23:51 | 33.14510 | 32.34180 | 34047 ft | 442 kts | 302° |
| 2026-05-05 23:52 | 33.18000 | 32.28138 | 34063 ft | 442 kts | 302° |
| 2026-05-05 23:52 | 33.20887 | 32.23135 | 34040 ft | 441 kts | 302° |
| 2026-05-05 23:53 | 33.24919 | 32.16135 | 34039 ft | 439 kts | 302° |
| 2026-05-05 23:53 | 33.27810 | 32.11100 | 34040 ft | 439 kts | 302° |
| 2026-05-05 23:54 | 33.31265 | 32.05085 | 34048 ft | 439 kts | 302° |
| 2026-05-05 23:54 | 33.34734 | 31.99088 | 34034 ft | 438 kts | 303° |
| 2026-05-05 23:55 | 33.38220 | 31.93105 | 34035 ft | 438 kts | 303° |
| 2026-05-05 23:55 | 33.41684 | 31.87178 | 34036 ft | 438 kts | 303° |
| 2026-05-05 23:56 | 33.45180 | 31.81204 | 34035 ft | 438 kts | 303° |
| 2026-05-05 23:56 | 33.48666 | 31.75225 | 34035 ft | 437 kts | 303° |
| 2026-05-05 23:57 | 33.51853 | 31.69740 | 34037 ft | 437 kts | 303° |
| 2026-05-05 23:57 | 33.55158 | 31.63649 | 34025 ft | 435 kts | 295° |
| 2026-05-05 23:58 | 33.57341 | 31.56910 | 34039 ft | 434 kts | 288° |
| 2026-05-05 23:58 | 33.59212 | 31.50018 | 34035 ft | 435 kts | 288° |
| 2026-05-05 23:59 | 33.60955 | 31.43076 | 34037 ft | 434 kts | 283° |
| 2026-05-05 23:59 | 33.61748 | 31.35890 | 34047 ft | 435 kts | 277° |
| 2026-05-06 00:00 | 33.62371 | 31.28663 | 34033 ft | 435 kts | 278° |
| 2026-05-06 00:00 | 33.63018 | 31.21455 | 34039 ft | 434 kts | 278° |
| 2026-05-06 00:01 | 33.63662 | 31.14261 | 34035 ft | 434 kts | 278° |
| 2026-05-06 00:02 | 33.64923 | 31.00110 | 34035 ft | 433 kts | 278° |
| 2026-05-06 00:02 | 33.65553 | 30.92920 | 34037 ft | 434 kts | 278° |
| 2026-05-06 00:03 | 33.66182 | 30.85715 | 34035 ft | 434 kts | 278° |
| 2026-05-06 00:03 | 33.66807 | 30.78503 | 34037 ft | 434 kts | 278° |
| 2026-05-06 00:04 | 33.67428 | 30.71285 | 34035 ft | 435 kts | 278° |
| 2026-05-06 00:04 | 33.68045 | 30.64067 | 34036 ft | 435 kts | 278° |
| 2026-05-06 00:05 | 33.68963 | 30.53234 | 34035 ft | 435 kts | 277° |
| 2026-05-06 00:06 | 33.69570 | 30.46007 | 34036 ft | 434 kts | 277° |
| 2026-05-06 00:06 | 33.70171 | 30.38796 | 34019 ft | 434 kts | 278° |
| 2026-05-06 00:07 | 33.70766 | 30.31597 | 34029 ft | 433 kts | 278° |
| 2026-05-06 00:07 | 33.71357 | 30.24407 | 34034 ft | 432 kts | 278° |
| 2026-05-06 00:08 | 33.71943 | 30.17234 | 34039 ft | 431 kts | 278° |
| 2026-05-06 00:08 | 33.72526 | 30.10059 | 34037 ft | 431 kts | 278° |
| 2026-05-06 00:09 | 33.73249 | 30.02919 | 34029 ft | 430 kts | 284° |
| 2026-05-06 00:09 | 33.74846 | 29.96074 | 34037 ft | 428 kts | 290° |
| 2026-05-06 00:10 | 33.77162 | 29.89507 | 34034 ft | 427 kts | 294° |
| 2026-05-06 00:10 | 33.79608 | 29.82985 | 34037 ft | 428 kts | 294° |
| 2026-05-06 00:11 | 33.82045 | 29.76453 | 34035 ft | 428 kts | 294° |
| 2026-05-06 00:11 | 33.84463 | 29.69915 | 34038 ft | 428 kts | 294° |
| 2026-05-06 00:12 | 33.86872 | 29.63375 | 34037 ft | 427 kts | 294° |
| 2026-05-06 00:12 | 33.89274 | 29.56839 | 34038 ft | 427 kts | 294° |
| 2026-05-06 00:13 | 33.91668 | 29.50306 | 34034 ft | 426 kts | 294° |
| 2026-05-06 00:13 | 33.94060 | 29.43770 | 34041 ft | 426 kts | 294° |
| 2026-05-06 00:14 | 33.96449 | 29.37232 | 34041 ft | 427 kts | 294° |
| 2026-05-06 00:14 | 33.98833 | 29.30686 | 34040 ft | 426 kts | 294° |
| 2026-05-06 00:15 | 34.01212 | 29.24144 | 34058 ft | 427 kts | 294° |
| 2026-05-06 00:15 | 34.03595 | 29.17576 | 34046 ft | 428 kts | 294° |
| 2026-05-06 00:16 | 34.05973 | 29.11009 | 34045 ft | 429 kts | 294° |
| 2026-05-06 00:16 | 34.08360 | 29.04409 | 34040 ft | 430 kts | 294° |
| 2026-05-06 00:17 | 34.10747 | 28.97795 | 34039 ft | 430 kts | 294° |
| 2026-05-06 00:17 | 34.13124 | 28.91185 | 34041 ft | 429 kts | 294° |
| 2026-05-06 00:18 | 34.15498 | 28.84578 | 34045 ft | 428 kts | 294° |
| 2026-05-06 00:18 | 34.17862 | 28.77983 | 34045 ft | 428 kts | 294° |
| 2026-05-06 00:19 | 34.20222 | 28.71388 | 34043 ft | 427 kts | 294° |
| 2026-05-06 00:19 | 34.22575 | 28.64802 | 34033 ft | 427 kts | 294° |
| 2026-05-06 00:20 | 34.24903 | 28.58263 | 34046 ft | 427 kts | 294° |
| 2026-05-06 00:20 | 34.27249 | 28.51668 | 34047 ft | 427 kts | 294° |
| 2026-05-06 00:21 | 34.29591 | 28.45072 | 34046 ft | 427 kts | 294° |
| 2026-05-06 00:21 | 34.31927 | 28.38472 | 34049 ft | 427 kts | 294° |
| 2026-05-06 00:22 | 34.34263 | 28.31862 | 34037 ft | 427 kts | 294° |
| 2026-05-06 00:22 | 34.36597 | 28.25242 | 34046 ft | 428 kts | 294° |
| 2026-05-06 00:23 | 34.38929 | 28.18611 | 34049 ft | 429 kts | 294° |
| 2026-05-06 00:23 | 34.41261 | 28.11970 | 34049 ft | 429 kts | 294° |
| 2026-05-06 00:24 | 34.43593 | 28.05321 | 34036 ft | 429 kts | 294° |
| 2026-05-06 00:24 | 34.45923 | 27.98661 | 34049 ft | 429 kts | 294° |
| 2026-05-06 00:25 | 34.48248 | 27.91995 | 34052 ft | 430 kts | 294° |
| 2026-05-06 00:25 | 34.50572 | 27.85323 | 34051 ft | 430 kts | 294° |
| 2026-05-06 00:26 | 34.52894 | 27.78640 | 34050 ft | 430 kts | 294° |
| 2026-05-06 00:26 | 34.55208 | 27.71955 | 34051 ft | 430 kts | 294° |
| 2026-05-06 00:27 | 34.57518 | 27.65267 | 34052 ft | 429 kts | 294° |
| 2026-05-06 00:27 | 34.59805 | 27.58624 | 34054 ft | 429 kts | 294° |
| 2026-05-06 00:28 | 34.62102 | 27.51939 | 34054 ft | 429 kts | 294° |
| 2026-05-06 00:28 | 34.64395 | 27.45249 | 34046 ft | 429 kts | 294° |
| 2026-05-06 00:29 | 34.66688 | 27.38553 | 34056 ft | 430 kts | 294° |
| 2026-05-06 00:29 | 34.68979 | 27.31842 | 34054 ft | 430 kts | 294° |
| 2026-05-06 00:30 | 34.71261 | 27.25144 | 34054 ft | 430 kts | 294° |
| 2026-05-06 00:30 | 34.73546 | 27.18421 | 34054 ft | 430 kts | 294° |
| 2026-05-06 00:31 | 34.75827 | 27.11696 | 34056 ft | 430 kts | 294° |
| 2026-05-06 00:31 | 34.78105 | 27.04970 | 34062 ft | 430 kts | 294° |
| 2026-05-06 00:32 | 34.80376 | 26.98242 | 34088 ft | 430 kts | 294° |
| 2026-05-06 00:32 | 34.82631 | 26.91548 | 34064 ft | 430 kts | 294° |
| 2026-05-06 00:33 | 34.84895 | 26.84822 | 34050 ft | 429 kts | 294° |
| 2026-05-06 00:33 | 34.87150 | 26.78097 | 34069 ft | 429 kts | 294° |
| 2026-05-06 00:34 | 34.89403 | 26.71375 | 34065 ft | 429 kts | 294° |
| 2026-05-06 00:34 | 34.91655 | 26.64633 | 34065 ft | 429 kts | 294° |
| 2026-05-06 00:35 | 34.93901 | 26.57893 | 34065 ft | 429 kts | 294° |
| 2026-05-06 00:35 | 34.96132 | 26.51187 | 34055 ft | 430 kts | 294° |
| 2026-05-06 00:36 | 34.98375 | 26.44426 | 34066 ft | 431 kts | 294° |
| 2026-05-06 00:36 | 35.00622 | 26.37639 | 34067 ft | 431 kts | 294° |
| 2026-05-06 00:37 | 35.02865 | 26.30850 | 34068 ft | 432 kts | 294° |
| 2026-05-06 00:37 | 35.05108 | 26.24043 | 34049 ft | 432 kts | 293° |
| 2026-05-06 00:38 | 35.06776 | 26.16976 | 34071 ft | 436 kts | 284° |
| 2026-05-06 00:38 | 35.07543 | 26.09604 | 34078 ft | 440 kts | 278° |
| 2026-05-06 00:39 | 35.08063 | 26.02164 | 34071 ft | 440 kts | 278° |
| 2026-05-06 00:39 | 35.08600 | 25.94715 | 34058 ft | 440 kts | 278° |
| 2026-05-06 00:40 | 35.09146 | 25.87271 | 34085 ft | 439 kts | 278° |
| 2026-05-06 00:40 | 35.09689 | 25.79869 | 34078 ft | 440 kts | 278° |
| 2026-05-06 00:41 | 35.10214 | 25.72416 | 34088 ft | 441 kts | 278° |
| 2026-05-06 00:41 | 35.10726 | 25.64954 | 34059 ft | 440 kts | 278° |
| 2026-05-06 00:42 | 35.11236 | 25.57516 | 34076 ft | 439 kts | 278° |
| 2026-05-06 00:42 | 35.11739 | 25.50069 | 34087 ft | 440 kts | 277° |
| 2026-05-06 00:43 | 35.12241 | 25.42597 | 34082 ft | 441 kts | 277° |
| 2026-05-06 00:43 | 35.12737 | 25.35130 | 34096 ft | 441 kts | 277° |
| 2026-05-06 00:44 | 35.13229 | 25.27700 | 34083 ft | 442 kts | 277° |
| 2026-05-06 00:44 | 35.13718 | 25.20204 | 34090 ft | 442 kts | 277° |
| 2026-05-06 00:45 | 35.14204 | 25.12711 | 34086 ft | 442 kts | 277° |
| 2026-05-06 00:45 | 35.14684 | 25.05211 | 34089 ft | 442 kts | 277° |
| 2026-05-06 00:46 | 35.15162 | 24.97717 | 34078 ft | 443 kts | 277° |
| 2026-05-06 00:46 | 35.15640 | 24.90217 | 34092 ft | 443 kts | 277° |
| 2026-05-06 00:47 | 35.16142 | 24.82703 | 34089 ft | 443 kts | 277° |
| 2026-05-06 00:47 | 35.16640 | 24.75252 | 34093 ft | 444 kts | 277° |
| 2026-05-06 00:48 | 35.17133 | 24.67716 | 34093 ft | 445 kts | 277° |
| 2026-05-06 00:48 | 35.17619 | 24.60170 | 34095 ft | 446 kts | 277° |
| 2026-05-06 00:48 | 35.17847 | 24.56381 | 34226 ft | 447 kts | 277° |
| 2026-05-06 00:49 | 35.18068 | 24.52591 | 34462 ft | 445 kts | 277° |
| 2026-05-06 00:49 | 35.18286 | 24.48827 | 34701 ft | 443 kts | 277° |
| 2026-05-06 00:49 | 35.18502 | 24.45075 | 34946 ft | 442 kts | 277° |
| 2026-05-06 00:49 | 35.18724 | 24.41330 | 35154 ft | 441 kts | 277° |
| 2026-05-06 00:50 | 35.18945 | 24.37582 | 35332 ft | 442 kts | 277° |
| 2026-05-06 00:50 | 35.19165 | 24.33827 | 35447 ft | 443 kts | 277° |
| 2026-05-06 00:50 | 35.19380 | 24.30118 | 35610 ft | 443 kts | 277° |
| 2026-05-06 00:50 | 35.19595 | 24.26366 | 35796 ft | 442 kts | 277° |
| 2026-05-06 00:51 | 35.19808 | 24.22616 | 35968 ft | 442 kts | 277° |
| 2026-05-06 00:51 | 35.20239 | 24.15086 | 36060 ft | 444 kts | 277° |
| 2026-05-06 00:52 | 35.20662 | 24.07542 | 36073 ft | 444 kts | 277° |
| 2026-05-06 00:52 | 35.21008 | 24.01281 | 36089 ft | 444 kts | 276° |
| 2026-05-06 00:53 | 35.21425 | 23.93733 | 36090 ft | 445 kts | 276° |
| 2026-05-06 00:53 | 35.21901 | 23.84957 | 36091 ft | 445 kts | 276° |
| 2026-05-06 00:54 | 35.22307 | 23.77399 | 36081 ft | 445 kts | 276° |
| 2026-05-06 00:54 | 35.22641 | 23.71124 | 36084 ft | 445 kts | 276° |
| 2026-05-06 00:55 | 35.23321 | 23.63625 | 36092 ft | 442 kts | 281° |
| 2026-05-06 00:55 | 35.24274 | 23.56193 | 36089 ft | 442 kts | 281° |
| 2026-05-06 00:56 | 35.25213 | 23.48770 | 36093 ft | 441 kts | 281° |
| 2026-05-06 00:56 | 35.26135 | 23.41345 | 36084 ft | 441 kts | 281° |
| 2026-05-06 00:57 | 35.27046 | 23.33936 | 36095 ft | 440 kts | 281° |
| 2026-05-06 00:57 | 35.27953 | 23.26529 | 36090 ft | 440 kts | 281° |
| 2026-05-06 00:58 | 35.28850 | 23.19173 | 36096 ft | 440 kts | 281° |
| 2026-05-06 00:58 | 35.29750 | 23.11756 | 36096 ft | 440 kts | 281° |
| 2026-05-06 00:59 | 35.30618 | 23.04551 | 36091 ft | 439 kts | 281° |
| 2026-05-06 00:59 | 35.31500 | 22.97188 | 36089 ft | 439 kts | 281° |
| 2026-05-06 01:00 | 35.32382 | 22.89806 | 36092 ft | 438 kts | 281° |
| 2026-05-06 01:00 | 35.33258 | 22.82426 | 36098 ft | 438 kts | 281° |
| 2026-05-06 01:01 | 35.34129 | 22.75057 | 36091 ft | 438 kts | 281° |
| 2026-05-06 01:01 | 35.34995 | 22.67679 | 36088 ft | 437 kts | 281° |
| 2026-05-06 01:02 | 35.35847 | 22.60379 | 36085 ft | 430 kts | 281° |
| 2026-05-06 01:02 | 35.36690 | 22.53126 | 36095 ft | 430 kts | 281° |
| 2026-05-06 01:03 | 35.37529 | 22.45869 | 36099 ft | 431 kts | 281° |
| 2026-05-06 01:03 | 35.38366 | 22.38597 | 36096 ft | 432 kts | 281° |
| 2026-05-06 01:04 | 35.39200 | 22.31299 | 36109 ft | 433 kts | 281° |
| 2026-05-06 01:04 | 35.40029 | 22.23982 | 36100 ft | 434 kts | 281° |
| 2026-05-06 01:05 | 35.40855 | 22.16650 | 36098 ft | 434 kts | 281° |
| 2026-05-06 01:05 | 35.41677 | 22.09310 | 36096 ft | 435 kts | 281° |
| 2026-05-06 01:06 | 35.42492 | 22.01972 | 36106 ft | 435 kts | 281° |
| 2026-05-06 01:06 | 35.43306 | 21.94628 | 36108 ft | 435 kts | 281° |
| 2026-05-06 01:07 | 35.44115 | 21.87274 | 36111 ft | 435 kts | 280° |
| 2026-05-06 01:07 | 35.44915 | 21.79977 | 36111 ft | 435 kts | 280° |
| 2026-05-06 01:08 | 35.45718 | 21.72625 | 36085 ft | 435 kts | 280° |
| 2026-05-06 01:08 | 35.46513 | 21.65263 | 36110 ft | 436 kts | 280° |
| 2026-05-06 01:09 | 35.47306 | 21.57891 | 36110 ft | 436 kts | 280° |
| 2026-05-06 01:09 | 35.48097 | 21.50503 | 36110 ft | 437 kts | 280° |
| 2026-05-06 01:10 | 35.48883 | 21.43112 | 36110 ft | 437 kts | 280° |
| 2026-05-06 01:10 | 35.49665 | 21.35719 | 36111 ft | 437 kts | 280° |
| 2026-05-06 01:11 | 35.50442 | 21.28326 | 36112 ft | 437 kts | 280° |
| 2026-05-06 01:11 | 35.51215 | 21.20932 | 36108 ft | 437 kts | 280° |
| 2026-05-06 01:12 | 35.52069 | 21.13561 | 36106 ft | 435 kts | 284° |
| 2026-05-06 01:12 | 35.53359 | 21.06309 | 36115 ft | 435 kts | 284° |
| 2026-05-06 01:13 | 35.54654 | 20.99055 | 36119 ft | 436 kts | 284° |
| 2026-05-06 01:13 | 35.55936 | 20.91773 | 36118 ft | 437 kts | 284° |
| 2026-05-06 01:14 | 35.57842 | 20.80839 | 36111 ft | 437 kts | 284° |
| 2026-05-06 01:14 | 35.59102 | 20.73583 | 36109 ft | 437 kts | 284° |
| 2026-05-06 01:15 | 35.60364 | 20.66280 | 36120 ft | 437 kts | 283° |
| 2026-05-06 01:15 | 35.61620 | 20.58969 | 36117 ft | 437 kts | 283° |
| 2026-05-06 01:16 | 35.62877 | 20.51655 | 36120 ft | 437 kts | 283° |
| 2026-05-06 01:16 | 35.64129 | 20.44335 | 36117 ft | 438 kts | 283° |
| 2026-05-06 01:17 | 35.65377 | 20.37005 | 36114 ft | 438 kts | 283° |
| 2026-05-06 01:17 | 35.66618 | 20.29669 | 36118 ft | 439 kts | 283° |
| 2026-05-06 01:18 | 35.67854 | 20.22335 | 36119 ft | 439 kts | 283° |
| 2026-05-06 01:18 | 35.69092 | 20.14981 | 36117 ft | 439 kts | 283° |
| 2026-05-06 01:19 | 35.70321 | 20.07645 | 36110 ft | 439 kts | 283° |
| 2026-05-06 01:19 | 35.71551 | 20.00282 | 36116 ft | 439 kts | 283° |
| 2026-05-06 01:20 | 35.72775 | 19.92911 | 36117 ft | 440 kts | 283° |
| 2026-05-06 01:20 | 35.73996 | 19.85531 | 36113 ft | 440 kts | 283° |
| 2026-05-06 01:21 | 35.75214 | 19.78147 | 36112 ft | 440 kts | 282° |
| 2026-05-06 01:21 | 35.76436 | 19.70713 | 36127 ft | 446 kts | 282° |
| 2026-05-06 01:22 | 35.77662 | 19.63230 | 36120 ft | 452 kts | 282° |
| 2026-05-06 01:22 | 35.78899 | 19.55619 | 36118 ft | 454 kts | 282° |
| 2026-05-06 01:23 | 35.80139 | 19.47975 | 36109 ft | 456 kts | 282° |
| 2026-05-06 01:23 | 35.81378 | 19.40322 | 36105 ft | 455 kts | 282° |
| 2026-05-06 01:24 | 35.82608 | 19.32672 | 36107 ft | 455 kts | 282° |
| 2026-05-06 01:24 | 35.83828 | 19.25032 | 36105 ft | 454 kts | 282° |
| 2026-05-06 01:25 | 35.85046 | 19.17403 | 36103 ft | 453 kts | 282° |
| 2026-05-06 01:25 | 35.85946 | 19.09730 | 36096 ft | 453 kts | 274° |
| 2026-05-06 01:26 | 35.85773 | 19.01976 | 36108 ft | 454 kts | 265° |
| 2026-05-06 01:26 | 35.85120 | 18.94239 | 36106 ft | 454 kts | 265° |
| 2026-05-06 01:27 | 35.84472 | 18.86503 | 36107 ft | 454 kts | 265° |
| 2026-05-06 01:27 | 35.83840 | 18.78762 | 36104 ft | 454 kts | 266° |
| 2026-05-06 01:28 | 35.83209 | 18.71012 | 36101 ft | 455 kts | 265° |
| 2026-05-06 01:28 | 35.82578 | 18.63269 | 36099 ft | 455 kts | 265° |
| 2026-05-06 01:29 | 35.81935 | 18.55504 | 36103 ft | 455 kts | 265° |
| 2026-05-06 01:29 | 35.81288 | 18.47744 | 36103 ft | 455 kts | 265° |
| 2026-05-06 01:30 | 35.80635 | 18.39982 | 36106 ft | 455 kts | 265° |
| 2026-05-06 01:30 | 35.79981 | 18.32241 | 36092 ft | 455 kts | 265° |
| 2026-05-06 01:31 | 35.79320 | 18.24503 | 36097 ft | 454 kts | 265° |
| 2026-05-06 01:31 | 35.79068 | 18.16761 | 36101 ft | 452 kts | 274° |
| 2026-05-06 01:32 | 35.79686 | 18.09066 | 36099 ft | 452 kts | 276° |
| 2026-05-06 01:32 | 35.80306 | 18.01421 | 36090 ft | 451 kts | 276° |
| 2026-05-06 01:33 | 35.80910 | 17.93679 | 36092 ft | 451 kts | 276° |
| 2026-05-06 01:33 | 35.81491 | 17.86038 | 36092 ft | 451 kts | 275° |
| 2026-05-06 01:34 | 35.82071 | 17.78338 | 36095 ft | 451 kts | 275° |
| 2026-05-06 01:34 | 35.82646 | 17.70665 | 36085 ft | 451 kts | 275° |
| 2026-05-06 01:35 | 35.83217 | 17.62970 | 36090 ft | 451 kts | 275° |
| 2026-05-06 01:35 | 35.83783 | 17.55272 | 36089 ft | 451 kts | 275° |
| 2026-05-06 01:36 | 35.84345 | 17.47559 | 36084 ft | 452 kts | 275° |
| 2026-05-06 01:36 | 35.84903 | 17.39848 | 36087 ft | 452 kts | 275° |
| 2026-05-06 01:37 | 35.85457 | 17.32130 | 36076 ft | 452 kts | 275° |
| 2026-05-06 01:37 | 35.86004 | 17.24403 | 36077 ft | 453 kts | 275° |
| 2026-05-06 01:38 | 35.86548 | 17.16664 | 36079 ft | 453 kts | 275° |
| 2026-05-06 01:38 | 35.87088 | 17.08926 | 36086 ft | 453 kts | 275° |
| 2026-05-06 01:39 | 35.87623 | 17.01179 | 36083 ft | 454 kts | 275° |
| 2026-05-06 01:39 | 35.88153 | 16.93423 | 36078 ft | 454 kts | 275° |
| 2026-05-06 01:40 | 35.88682 | 16.85715 | 36071 ft | 454 kts | 275° |
| 2026-05-06 01:40 | 35.89207 | 16.77961 | 36075 ft | 454 kts | 275° |
| 2026-05-06 01:41 | 35.89730 | 16.70208 | 36073 ft | 453 kts | 275° |
| 2026-05-06 01:41 | 35.90247 | 16.62454 | 36070 ft | 454 kts | 274° |
| 2026-05-06 01:42 | 35.90758 | 16.54696 | 36069 ft | 454 kts | 274° |
| 2026-05-06 01:42 | 35.91264 | 16.46937 | 36065 ft | 454 kts | 274° |
| 2026-05-06 01:43 | 35.91683 | 16.40486 | 36069 ft | 454 kts | 274° |
| 2026-05-06 01:43 | 35.92181 | 16.32721 | 36070 ft | 454 kts | 274° |
| 2026-05-06 01:44 | 35.92674 | 16.24951 | 36067 ft | 454 kts | 274° |
| 2026-05-06 01:44 | 35.93163 | 16.17179 | 36062 ft | 454 kts | 274° |
| 2026-05-06 01:45 | 35.93643 | 16.09414 | 36062 ft | 454 kts | 274° |
| 2026-05-06 01:45 | 35.94121 | 16.01647 | 36063 ft | 454 kts | 274° |
| 2026-05-06 01:46 | 35.94596 | 15.93865 | 36060 ft | 455 kts | 274° |
| 2026-05-06 01:46 | 35.95064 | 15.86086 | 36057 ft | 455 kts | 274° |
| 2026-05-06 01:47 | 35.95529 | 15.78290 | 36056 ft | 455 kts | 274° |
| 2026-05-06 01:47 | 35.95987 | 15.70493 | 36058 ft | 455 kts | 274° |
| 2026-05-06 01:48 | 35.96443 | 15.62697 | 36058 ft | 455 kts | 274° |
| 2026-05-06 01:48 | 35.96886 | 15.54952 | 36038 ft | 455 kts | 274° |
| 2026-05-06 01:49 | 35.97319 | 15.47167 | 36044 ft | 454 kts | 274° |
| 2026-05-06 01:49 | 35.97776 | 15.38876 | 36051 ft | 454 kts | 274° |
| 2026-05-06 01:50 | 35.98197 | 15.31157 | 36046 ft | 453 kts | 273° |
| 2026-05-06 01:50 | 35.98617 | 15.23394 | 36052 ft | 453 kts | 273° |
| 2026-05-06 01:51 | 35.99032 | 15.15632 | 36046 ft | 453 kts | 273° |
| 2026-05-06 01:51 | 35.99441 | 15.07867 | 36046 ft | 453 kts | 273° |
| 2026-05-06 01:52 | 35.99844 | 15.00096 | 36045 ft | 453 kts | 273° |
| 2026-05-06 01:52 | 36.00246 | 14.92320 | 36045 ft | 453 kts | 273° |
| 2026-05-06 01:53 | 36.00641 | 14.84547 | 36043 ft | 454 kts | 273° |
| 2026-05-06 01:53 | 36.01030 | 14.76763 | 36045 ft | 454 kts | 273° |
| 2026-05-06 01:54 | 36.01416 | 14.68981 | 36043 ft | 454 kts | 273° |
| 2026-05-06 01:54 | 36.01794 | 14.61200 | 36038 ft | 454 kts | 273° |
| 2026-05-06 01:55 | 36.02168 | 14.53426 | 36039 ft | 454 kts | 273° |
| 2026-05-06 01:55 | 36.02588 | 14.45660 | 36039 ft | 452 kts | 273° |
| 2026-05-06 01:56 | 36.02923 | 14.37899 | 36035 ft | 453 kts | 272° |
| 2026-05-06 01:56 | 36.03261 | 14.30130 | 36032 ft | 453 kts | 273° |
| 2026-05-06 01:57 | 36.03611 | 14.22405 | 36034 ft | 453 kts | 272° |
| 2026-05-06 01:57 | 36.03365 | 14.14641 | 36035 ft | 453 kts | 265° |
| 2026-05-06 01:58 | 36.02796 | 14.06838 | 36026 ft | 453 kts | 265° |
| 2026-05-06 01:58 | 36.02249 | 13.99080 | 36025 ft | 454 kts | 265° |
| 2026-05-06 01:59 | 36.01714 | 13.91335 | 36021 ft | 454 kts | 265° |
| 2026-05-06 01:59 | 36.01202 | 13.83941 | 36032 ft | 454 kts | 265° |
| 2026-05-06 02:00 | 36.00663 | 13.76231 | 36022 ft | 453 kts | 265° |
| 2026-05-06 02:00 | 36.00266 | 13.68416 | 36014 ft | 453 kts | 273° |
| 2026-05-06 02:01 | 36.01591 | 13.60884 | 36006 ft | 455 kts | 288° |
| 2026-05-06 02:01 | 36.04289 | 13.53811 | 36004 ft | 456 kts | 296° |
| 2026-05-06 02:02 | 36.07859 | 13.47308 | 36019 ft | 460 kts | 308° |
| 2026-05-06 02:02 | 36.12269 | 13.41545 | 36006 ft | 462 kts | 311° |
| 2026-05-06 02:03 | 36.16726 | 13.35803 | 36024 ft | 463 kts | 311° |
| 2026-05-06 02:03 | 36.21167 | 13.30030 | 36019 ft | 463 kts | 310° |
| 2026-05-06 02:04 | 36.25602 | 13.24225 | 36023 ft | 464 kts | 310° |
| 2026-05-06 02:04 | 36.30041 | 13.18407 | 36007 ft | 465 kts | 310° |
| 2026-05-06 02:05 | 36.34482 | 13.12575 | 36013 ft | 465 kts | 310° |
| 2026-05-06 02:05 | 36.38923 | 13.06734 | 36008 ft | 465 kts | 310° |
| 2026-05-06 02:06 | 36.43361 | 13.00884 | 36011 ft | 465 kts | 310° |
| 2026-05-06 02:06 | 36.47856 | 12.95104 | 36006 ft | 466 kts | 315° |
| 2026-05-06 02:07 | 36.52824 | 12.89912 | 36006 ft | 467 kts | 318° |
| 2026-05-06 02:07 | 36.57908 | 12.84872 | 36011 ft | 468 kts | 319° |
| 2026-05-06 02:08 | 36.63014 | 12.79850 | 36003 ft | 468 kts | 318° |
| 2026-05-06 02:08 | 36.68110 | 12.74810 | 36014 ft | 467 kts | 318° |
| 2026-05-06 02:09 | 36.73184 | 12.69764 | 36003 ft | 467 kts | 318° |
| 2026-05-06 02:09 | 36.78264 | 12.64695 | 36008 ft | 467 kts | 318° |
| 2026-05-06 02:10 | 36.83342 | 12.59618 | 36008 ft | 468 kts | 318° |
| 2026-05-06 02:10 | 36.88418 | 12.54538 | 36003 ft | 468 kts | 318° |
| 2026-05-06 02:11 | 36.93490 | 12.49455 | 36006 ft | 468 kts | 318° |
| 2026-05-06 02:11 | 36.98536 | 12.44385 | 36003 ft | 468 kts | 318° |
| 2026-05-06 02:12 | 37.02789 | 12.40105 | 36014 ft | 468 kts | 318° |
| 2026-05-06 02:12 | 37.07826 | 12.35029 | 36009 ft | 468 kts | 318° |
| 2026-05-06 02:13 | 37.12902 | 12.29906 | 35999 ft | 468 kts | 317° |
| 2026-05-06 02:13 | 37.18816 | 12.23923 | 36000 ft | 469 kts | 317° |
| 2026-05-06 02:14 | 37.23031 | 12.19655 | 35999 ft | 469 kts | 317° |
| 2026-05-06 02:14 | 37.28105 | 12.14505 | 36002 ft | 469 kts | 317° |
| 2026-05-06 02:15 | 37.33174 | 12.09352 | 36003 ft | 469 kts | 317° |
| 2026-05-06 02:15 | 37.38248 | 12.04181 | 35997 ft | 469 kts | 317° |
| 2026-05-06 02:16 | 37.43321 | 11.99004 | 36000 ft | 470 kts | 317° |
| 2026-05-06 02:16 | 37.48396 | 11.93818 | 35999 ft | 470 kts | 317° |
| 2026-05-06 02:17 | 37.53469 | 11.88624 | 36006 ft | 470 kts | 317° |
| 2026-05-06 02:17 | 37.58537 | 11.83425 | 36005 ft | 470 kts | 317° |
| 2026-05-06 02:18 | 37.63612 | 11.78209 | 36007 ft | 470 kts | 317° |
| 2026-05-06 02:18 | 37.68680 | 11.72988 | 36006 ft | 471 kts | 317° |
| 2026-05-06 02:19 | 37.73763 | 11.67747 | 36009 ft | 471 kts | 317° |
| 2026-05-06 02:19 | 37.78472 | 11.62053 | 36006 ft | 466 kts | 306° |
| 2026-05-06 02:20 | 37.84530 | 11.52534 | 35999 ft | 465 kts | 305° |
| 2026-05-06 02:21 | 37.88626 | 11.46179 | 36002 ft | 466 kts | 306° |
| 2026-05-06 02:21 | 37.92712 | 11.39841 | 35999 ft | 465 kts | 304° |
| 2026-05-06 02:22 | 37.96461 | 11.33212 | 36001 ft | 462 kts | 301° |
| 2026-05-06 02:22 | 38.00115 | 11.26495 | 35997 ft | 463 kts | 301° |
| 2026-05-06 02:23 | 38.03768 | 11.19773 | 35996 ft | 463 kts | 301° |
| 2026-05-06 02:23 | 38.07432 | 11.13050 | 35995 ft | 463 kts | 301° |
| 2026-05-06 02:24 | 38.11097 | 11.06322 | 35993 ft | 463 kts | 301° |
| 2026-05-06 02:24 | 38.14764 | 10.99586 | 36006 ft | 463 kts | 301° |
| 2026-05-06 02:25 | 38.18427 | 10.92844 | 35987 ft | 464 kts | 301° |
| 2026-05-06 02:25 | 38.22087 | 10.86089 | 35984 ft | 464 kts | 301° |
| 2026-05-06 02:26 | 38.25745 | 10.79321 | 35993 ft | 464 kts | 301° |
| 2026-05-06 02:26 | 38.29399 | 10.72547 | 35983 ft | 464 kts | 301° |
| 2026-05-06 02:27 | 38.33023 | 10.65815 | 35976 ft | 464 kts | 301° |
| 2026-05-06 02:27 | 38.36671 | 10.59027 | 35974 ft | 464 kts | 301° |
| 2026-05-06 02:28 | 38.40309 | 10.52242 | 35974 ft | 463 kts | 301° |
| 2026-05-06 02:28 | 38.43938 | 10.45460 | 35978 ft | 462 kts | 300° |
| 2026-05-06 02:29 | 38.47553 | 10.38687 | 35962 ft | 462 kts | 300° |
| 2026-05-06 02:29 | 38.51161 | 10.31914 | 35964 ft | 461 kts | 300° |
| 2026-05-06 02:30 | 38.54759 | 10.25150 | 35958 ft | 460 kts | 300° |
| 2026-05-06 02:30 | 38.58354 | 10.18371 | 35971 ft | 461 kts | 300° |
| 2026-05-06 02:31 | 38.61947 | 10.11583 | 35950 ft | 461 kts | 300° |
| 2026-05-06 02:31 | 38.65534 | 10.04794 | 35951 ft | 461 kts | 300° |
| 2026-05-06 02:32 | 38.69116 | 9.98005 | 35946 ft | 460 kts | 300° |
| 2026-05-06 02:32 | 38.72684 | 9.91225 | 35953 ft | 459 kts | 300° |
| 2026-05-06 02:33 | 38.76245 | 9.84437 | 35949 ft | 457 kts | 300° |
| 2026-05-06 02:33 | 38.77421 | 9.82197 | 35945 ft | 458 kts | 300° |
| 2026-05-06 02:34 | 38.83344 | 9.70869 | 35950 ft | 459 kts | 300° |
| 2026-05-06 02:34 | 38.86896 | 9.64064 | 35949 ft | 459 kts | 300° |
| 2026-05-06 02:35 | 38.89845 | 9.56881 | 35956 ft | 453 kts | 288° |
| 2026-05-06 02:35 | 38.91641 | 9.49179 | 35947 ft | 449 kts | 279° |
| 2026-05-06 02:36 | 38.92884 | 9.41377 | 35959 ft | 450 kts | 279° |
| 2026-05-06 02:36 | 38.94139 | 9.33450 | 35956 ft | 450 kts | 279° |
| 2026-05-06 02:37 | 38.95393 | 9.25626 | 35954 ft | 450 kts | 279° |
| 2026-05-06 02:37 | 38.96671 | 9.17704 | 35950 ft | 450 kts | 279° |
| 2026-05-06 02:38 | 38.97928 | 9.09887 | 35952 ft | 449 kts | 279° |
| 2026-05-06 02:38 | 38.99187 | 9.02027 | 35951 ft | 449 kts | 279° |
| 2026-05-06 02:39 | 39.00439 | 8.94175 | 35943 ft | 448 kts | 279° |
| 2026-05-06 02:39 | 39.01685 | 8.86331 | 35964 ft | 448 kts | 279° |
| 2026-05-06 02:40 | 39.02922 | 8.78505 | 35961 ft | 448 kts | 279° |
| 2026-05-06 02:40 | 39.04156 | 8.70629 | 35970 ft | 448 kts | 278° |
| 2026-05-06 02:41 | 39.05385 | 8.62771 | 35952 ft | 448 kts | 278° |
| 2026-05-06 02:41 | 39.06608 | 8.54921 | 35946 ft | 447 kts | 278° |
| 2026-05-06 02:42 | 39.07824 | 8.47079 | 35945 ft | 446 kts | 278° |
| 2026-05-06 02:42 | 39.09030 | 8.39258 | 35949 ft | 445 kts | 278° |
| 2026-05-06 02:43 | 39.10231 | 8.31432 | 35957 ft | 446 kts | 278° |
| 2026-05-06 02:43 | 39.11428 | 8.23597 | 35951 ft | 446 kts | 278° |
| 2026-05-06 02:44 | 39.12612 | 8.15809 | 35943 ft | 446 kts | 278° |
| 2026-05-06 02:44 | 39.13800 | 8.07969 | 35947 ft | 446 kts | 278° |
| 2026-05-06 02:45 | 39.14933 | 8.00127 | 35946 ft | 444 kts | 275° |
| 2026-05-06 02:45 | 39.15306 | 7.92214 | 35954 ft | 442 kts | 269° |
| 2026-05-06 02:46 | 39.15535 | 7.84298 | 35946 ft | 442 kts | 270° |
| 2026-05-06 02:46 | 39.15778 | 7.76392 | 35943 ft | 442 kts | 270° |
| 2026-05-06 02:47 | 39.16025 | 7.68478 | 35950 ft | 441 kts | 270° |
| 2026-05-06 02:47 | 39.16270 | 7.60580 | 35944 ft | 441 kts | 270° |
| 2026-05-06 02:48 | 39.16511 | 7.52683 | 35953 ft | 441 kts | 269° |
| 2026-05-06 02:48 | 39.16745 | 7.44784 | 35943 ft | 441 kts | 269° |
| 2026-05-06 02:49 | 39.16974 | 7.36887 | 35944 ft | 441 kts | 269° |
| 2026-05-06 02:49 | 39.17197 | 7.28998 | 35943 ft | 441 kts | 269° |
| 2026-05-06 02:50 | 39.17415 | 7.21107 | 35944 ft | 440 kts | 269° |
| 2026-05-06 02:50 | 39.17626 | 7.13223 | 35946 ft | 440 kts | 269° |
| 2026-05-06 02:51 | 39.17833 | 7.05340 | 35946 ft | 440 kts | 269° |
| 2026-05-06 02:51 | 39.18035 | 6.97447 | 35945 ft | 440 kts | 269° |
| 2026-05-06 02:52 | 39.18228 | 6.89614 | 35946 ft | 441 kts | 269° |
| 2026-05-06 02:52 | 39.18420 | 6.81722 | 35959 ft | 441 kts | 269° |
| 2026-05-06 02:53 | 39.18607 | 6.73827 | 35949 ft | 440 kts | 268° |
| 2026-05-06 02:53 | 39.18789 | 6.65935 | 35938 ft | 440 kts | 268° |
| 2026-05-06 02:54 | 39.18962 | 6.58043 | 35938 ft | 440 kts | 268° |
| 2026-05-06 02:54 | 39.19132 | 6.50159 | 35942 ft | 440 kts | 268° |
| 2026-05-06 02:55 | 39.19297 | 6.42276 | 35950 ft | 440 kts | 268° |
| 2026-05-06 02:55 | 39.19455 | 6.34394 | 35938 ft | 440 kts | 268° |
| 2026-05-06 02:56 | 39.19608 | 6.26515 | 35939 ft | 439 kts | 268° |
| 2026-05-06 02:56 | 39.19756 | 6.18641 | 35937 ft | 439 kts | 268° |
| 2026-05-06 02:57 | 39.19898 | 6.10766 | 35937 ft | 439 kts | 268° |
| 2026-05-06 02:57 | 39.20037 | 6.02893 | 35942 ft | 440 kts | 268° |
| 2026-05-06 02:58 | 39.20170 | 5.95013 | 35939 ft | 440 kts | 268° |
| 2026-05-06 02:58 | 39.20295 | 5.87135 | 35925 ft | 440 kts | 268° |
| 2026-05-06 02:59 | 39.20417 | 5.79245 | 35935 ft | 440 kts | 268° |
| 2026-05-06 02:59 | 39.20534 | 5.71352 | 35938 ft | 441 kts | 268° |
| 2026-05-06 03:00 | 39.20627 | 5.64784 | 35964 ft | 441 kts | 268° |
| 2026-05-06 03:00 | 39.20734 | 5.56864 | 35937 ft | 442 kts | 268° |
| 2026-05-06 03:01 | 39.20835 | 5.48943 | 35933 ft | 442 kts | 268° |
| 2026-05-06 03:01 | 39.20930 | 5.41016 | 35934 ft | 442 kts | 267° |
| 2026-05-06 03:02 | 39.21024 | 5.33101 | 35947 ft | 441 kts | 267° |
| 2026-05-06 03:02 | 39.21109 | 5.25191 | 35934 ft | 441 kts | 267° |
| 2026-05-06 03:03 | 39.21188 | 5.17286 | 35927 ft | 441 kts | 267° |
| 2026-05-06 03:03 | 39.21264 | 5.09394 | 35926 ft | 440 kts | 267° |
| 2026-05-06 03:04 | 39.21334 | 5.01514 | 35930 ft | 439 kts | 267° |
| 2026-05-06 03:04 | 39.21397 | 4.93635 | 35952 ft | 439 kts | 267° |
| 2026-05-06 03:05 | 39.21455 | 4.85749 | 35932 ft | 440 kts | 267° |
| 2026-05-06 03:05 | 39.21506 | 4.78403 | 35926 ft | 440 kts | 267° |
| 2026-05-06 03:06 | 39.21554 | 4.70515 | 35928 ft | 440 kts | 267° |
| 2026-05-06 03:06 | 39.21597 | 4.62634 | 35931 ft | 440 kts | 267° |
| 2026-05-06 03:07 | 39.21635 | 4.54796 | 35942 ft | 440 kts | 267° |
| 2026-05-06 03:07 | 39.21668 | 4.46858 | 35929 ft | 440 kts | 267° |
| 2026-05-06 03:08 | 39.21694 | 4.38975 | 35927 ft | 440 kts | 267° |
| 2026-05-06 03:08 | 39.21716 | 4.31171 | 35929 ft | 439 kts | 267° |
| 2026-05-06 03:09 | 39.21734 | 4.23295 | 35929 ft | 439 kts | 266° |
| 2026-05-06 03:09 | 39.21739 | 4.15417 | 35931 ft | 439 kts | 266° |
| 2026-05-06 03:10 | 39.20992 | 4.07661 | 35929 ft | 435 kts | 256° |
| 2026-05-06 03:10 | 39.19319 | 4.00180 | 35937 ft | 434 kts | 249° |
| 2026-05-06 03:11 | 39.17244 | 3.92871 | 35929 ft | 435 kts | 248° |
| 2026-05-06 03:11 | 39.15150 | 3.85549 | 35930 ft | 436 kts | 249° |
| 2026-05-06 03:12 | 39.13068 | 3.78220 | 35943 ft | 436 kts | 249° |
| 2026-05-06 03:12 | 39.10987 | 3.70871 | 35933 ft | 437 kts | 249° |
| 2026-05-06 03:13 | 39.08902 | 3.63520 | 35928 ft | 437 kts | 249° |
| 2026-05-06 03:13 | 39.06816 | 3.56188 | 35909 ft | 436 kts | 249° |
| 2026-05-06 03:14 | 39.04720 | 3.48850 | 35921 ft | 436 kts | 249° |
| 2026-05-06 03:14 | 39.02625 | 3.41521 | 35931 ft | 437 kts | 249° |
| 2026-05-06 03:15 | 39.00525 | 3.34193 | 35927 ft | 437 kts | 249° |
| 2026-05-06 03:15 | 38.98431 | 3.26917 | 35930 ft | 437 kts | 249° |
| 2026-05-06 03:16 | 38.96319 | 3.19594 | 35931 ft | 437 kts | 249° |
| 2026-05-06 03:16 | 38.94203 | 3.12278 | 35929 ft | 437 kts | 249° |
| 2026-05-06 03:17 | 38.92083 | 3.04972 | 35949 ft | 437 kts | 249° |
| 2026-05-06 03:17 | 38.89955 | 2.97658 | 35935 ft | 437 kts | 249° |
| 2026-05-06 03:18 | 38.87826 | 2.90350 | 35927 ft | 437 kts | 249° |
| 2026-05-06 03:18 | 38.85691 | 2.83053 | 35908 ft | 437 kts | 249° |
| 2026-05-06 03:19 | 38.83553 | 2.75763 | 35924 ft | 437 kts | 249° |
| 2026-05-06 03:19 | 38.81406 | 2.68464 | 35931 ft | 438 kts | 249° |
| 2026-05-06 03:20 | 38.78172 | 2.57502 | 35934 ft | 439 kts | 249° |
| 2026-05-06 03:20 | 38.76008 | 2.50194 | 35933 ft | 440 kts | 249° |
| 2026-05-06 03:21 | 38.73833 | 2.42867 | 35930 ft | 440 kts | 249° |
| 2026-05-06 03:21 | 38.71650 | 2.35538 | 35929 ft | 440 kts | 249° |
| 2026-05-06 03:22 | 38.69465 | 2.28216 | 35944 ft | 440 kts | 249° |
| 2026-05-06 03:22 | 38.67278 | 2.20905 | 35932 ft | 439 kts | 249° |
| 2026-05-06 03:23 | 38.65096 | 2.13622 | 35926 ft | 438 kts | 249° |
| 2026-05-06 03:23 | 38.62925 | 2.06417 | 35912 ft | 437 kts | 249° |
| 2026-05-06 03:24 | 38.60735 | 1.99158 | 35929 ft | 438 kts | 248° |
| 2026-05-06 03:24 | 38.58536 | 1.91884 | 35931 ft | 440 kts | 248° |
| 2026-05-06 03:25 | 38.56325 | 1.84599 | 35937 ft | 440 kts | 249° |
| 2026-05-06 03:25 | 38.54107 | 1.77308 | 35930 ft | 441 kts | 249° |
| 2026-05-06 03:26 | 38.51886 | 1.70022 | 35934 ft | 440 kts | 249° |
| 2026-05-06 03:26 | 38.49640 | 1.62763 | 35930 ft | 439 kts | 248° |
| 2026-05-06 03:27 | 38.47427 | 1.55509 | 35933 ft | 439 kts | 249° |
| 2026-05-06 03:27 | 38.45212 | 1.48256 | 35941 ft | 438 kts | 249° |
| 2026-05-06 03:28 | 38.42996 | 1.41049 | 35936 ft | 436 kts | 249° |
| 2026-05-06 03:28 | 38.40776 | 1.33866 | 35932 ft | 434 kts | 249° |
| 2026-05-06 03:29 | 38.38575 | 1.26765 | 35934 ft | 433 kts | 249° |
| 2026-05-06 03:29 | 38.36357 | 1.19628 | 35928 ft | 433 kts | 249° |
| 2026-05-06 03:30 | 38.34141 | 1.12498 | 35938 ft | 433 kts | 248° |
| 2026-05-06 03:30 | 38.31916 | 1.05369 | 35928 ft | 433 kts | 248° |
| 2026-05-06 03:31 | 38.29685 | 0.98240 | 35924 ft | 433 kts | 248° |
| 2026-05-06 03:31 | 38.27451 | 0.91124 | 35926 ft | 433 kts | 248° |
| 2026-05-06 03:32 | 38.25213 | 0.84008 | 35924 ft | 433 kts | 248° |
| 2026-05-06 03:32 | 38.22970 | 0.76898 | 35919 ft | 433 kts | 248° |
| 2026-05-06 03:33 | 38.20728 | 0.69806 | 35926 ft | 432 kts | 248° |
| 2026-05-06 03:33 | 38.18483 | 0.62716 | 35905 ft | 432 kts | 248° |
| 2026-05-06 03:34 | 38.16235 | 0.55638 | 35919 ft | 432 kts | 249° |
| 2026-05-06 03:34 | 38.13977 | 0.48542 | 35929 ft | 433 kts | 248° |
| 2026-05-06 03:35 | 38.11725 | 0.41495 | 35924 ft | 434 kts | 248° |
| 2026-05-06 03:35 | 38.09436 | 0.34343 | 35934 ft | 434 kts | 248° |
| 2026-05-06 03:36 | 38.07156 | 0.27241 | 35927 ft | 434 kts | 248° |
| 2026-05-06 03:36 | 38.04893 | 0.20207 | 35919 ft | 433 kts | 248° |
| 2026-05-06 03:37 | 38.02616 | 0.13146 | 35921 ft | 432 kts | 248° |
| 2026-05-06 03:37 | 38.00338 | 0.06096 | 35923 ft | 432 kts | 248° |
| 2026-05-06 03:38 | 37.98056 | -0.00948 | 35923 ft | 432 kts | 248° |
| 2026-05-06 03:38 | 37.95768 | -0.07989 | 35912 ft | 432 kts | 248° |
| 2026-05-06 03:39 | 37.93474 | -0.15030 | 35908 ft | 432 kts | 248° |
| 2026-05-06 03:39 | 37.91169 | -0.22091 | 35922 ft | 436 kts | 248° |
| 2026-05-06 03:40 | 37.88836 | -0.29220 | 35919 ft | 440 kts | 248° |
| 2026-05-06 03:40 | 37.86484 | -0.36391 | 35916 ft | 442 kts | 248° |
| 2026-05-06 03:41 | 37.84120 | -0.43572 | 35916 ft | 442 kts | 248° |
| 2026-05-06 03:41 | 37.81757 | -0.50747 | 35909 ft | 441 kts | 248° |
| 2026-05-06 03:42 | 37.79390 | -0.57901 | 35910 ft | 440 kts | 248° |
| 2026-05-06 03:42 | 37.77030 | -0.65024 | 35904 ft | 438 kts | 248° |
| 2026-05-06 03:43 | 37.74674 | -0.72120 | 35913 ft | 437 kts | 248° |
| 2026-05-06 03:43 | 37.72334 | -0.79146 | 35920 ft | 436 kts | 248° |
| 2026-05-06 03:44 | 37.69978 | -0.86205 | 35898 ft | 436 kts | 248° |
| 2026-05-06 03:44 | 37.67621 | -0.93246 | 35910 ft | 435 kts | 248° |
| 2026-05-06 03:45 | 37.65260 | -1.00284 | 35913 ft | 436 kts | 248° |
| 2026-05-06 03:45 | 37.62893 | -1.07325 | 35912 ft | 436 kts | 248° |
| 2026-05-06 03:46 | 37.60520 | -1.14369 | 35911 ft | 437 kts | 248° |
| 2026-05-06 03:46 | 37.58140 | -1.21419 | 35909 ft | 437 kts | 248° |
| 2026-05-06 03:47 | 37.55748 | -1.28478 | 35916 ft | 438 kts | 248° |
| 2026-05-06 03:47 | 37.53353 | -1.35536 | 35914 ft | 438 kts | 248° |
| 2026-05-06 03:48 | 37.50954 | -1.42590 | 35908 ft | 438 kts | 248° |
| 2026-05-06 03:48 | 37.48955 | -1.48445 | 35912 ft | 438 kts | 248° |
| 2026-05-06 03:49 | 37.46142 | -1.56682 | 35895 ft | 438 kts | 248° |
| 2026-05-06 03:49 | 37.44144 | -1.62521 | 35910 ft | 437 kts | 248° |
| 2026-05-06 03:50 | 37.42303 | -1.69753 | 35929 ft | 435 kts | 261° |
| 2026-05-06 03:50 | 37.42048 | -1.77370 | 36032 ft | 440 kts | 274° |
| 2026-05-06 03:51 | 37.42490 | -1.81180 | 36186 ft | 441 kts | 277° |
| 2026-05-06 03:51 | 37.42986 | -1.84982 | 36392 ft | 440 kts | 277° |
| 2026-05-06 03:51 | 37.43491 | -1.88781 | 36604 ft | 440 kts | 277° |
| 2026-05-06 03:51 | 37.43990 | -1.92574 | 36788 ft | 440 kts | 277° |
| 2026-05-06 03:52 | 37.44962 | -2.00194 | 36922 ft | 441 kts | 276° |
| 2026-05-06 03:52 | 37.45906 | -2.07817 | 36959 ft | 440 kts | 276° |
| 2026-05-06 03:53 | 37.46837 | -2.15409 | 36967 ft | 438 kts | 276° |
| 2026-05-06 03:53 | 37.47761 | -2.22995 | 36964 ft | 438 kts | 276° |
| 2026-05-06 03:54 | 37.48677 | -2.30559 | 36989 ft | 437 kts | 276° |
| 2026-05-06 03:54 | 37.49590 | -2.38113 | 36980 ft | 436 kts | 276° |
| 2026-05-06 03:55 | 37.50494 | -2.45660 | 36985 ft | 436 kts | 276° |
| 2026-05-06 03:55 | 37.51396 | -2.53206 | 36987 ft | 435 kts | 276° |
| 2026-05-06 03:56 | 37.52291 | -2.60750 | 36997 ft | 435 kts | 276° |
| 2026-05-06 03:56 | 37.53180 | -2.68290 | 37003 ft | 434 kts | 276° |
| 2026-05-06 03:57 | 37.54055 | -2.75742 | 36986 ft | 432 kts | 276° |
| 2026-05-06 03:57 | 37.54926 | -2.83198 | 36993 ft | 429 kts | 276° |
| 2026-05-06 03:58 | 37.55790 | -2.90642 | 36989 ft | 428 kts | 276° |
| 2026-05-06 03:58 | 37.56644 | -2.98060 | 36992 ft | 427 kts | 276° |
| 2026-05-06 03:59 | 37.57492 | -3.05472 | 36996 ft | 428 kts | 276° |
| 2026-05-06 03:59 | 37.58342 | -3.12904 | 36988 ft | 428 kts | 276° |
| 2026-05-06 04:00 | 37.59185 | -3.20343 | 37003 ft | 429 kts | 276° |
| 2026-05-06 04:00 | 37.60026 | -3.27799 | 36991 ft | 430 kts | 275° |
| 2026-05-06 04:01 | 37.60861 | -3.35269 | 36986 ft | 431 kts | 275° |
| 2026-05-06 04:01 | 37.61694 | -3.42749 | 36987 ft | 431 kts | 275° |
| 2026-05-06 04:02 | 37.62524 | -3.50232 | 36993 ft | 431 kts | 275° |
| 2026-05-06 04:02 | 37.63348 | -3.57714 | 36975 ft | 431 kts | 275° |
| 2026-05-06 04:03 | 37.64167 | -3.65187 | 36968 ft | 430 kts | 275° |
| 2026-05-06 04:03 | 37.64981 | -3.72658 | 36976 ft | 429 kts | 275° |
| 2026-05-06 04:04 | 37.65786 | -3.80130 | 36985 ft | 431 kts | 275° |
| 2026-05-06 04:04 | 37.66591 | -3.87614 | 36968 ft | 429 kts | 275° |
| 2026-05-06 04:05 | 37.67388 | -3.95071 | 36965 ft | 429 kts | 275° |
| 2026-05-06 04:05 | 37.68181 | -4.02526 | 36965 ft | 428 kts | 275° |
| 2026-05-06 04:06 | 37.68966 | -4.09963 | 36964 ft | 428 kts | 275° |
| 2026-05-06 04:06 | 37.69745 | -4.17400 | 36962 ft | 428 kts | 275° |
| 2026-05-06 04:07 | 37.70521 | -4.24850 | 36958 ft | 428 kts | 275° |
| 2026-05-06 04:07 | 37.71278 | -4.32143 | 36961 ft | 428 kts | 275° |
| 2026-05-06 04:08 | 37.72044 | -4.39597 | 36946 ft | 428 kts | 275° |
| 2026-05-06 04:08 | 37.72808 | -4.47056 | 36957 ft | 428 kts | 275° |
| 2026-05-06 04:09 | 37.73567 | -4.54523 | 36958 ft | 428 kts | 275° |
| 2026-05-06 04:09 | 37.74313 | -4.61934 | 36956 ft | 428 kts | 275° |
| 2026-05-06 04:10 | 37.75066 | -4.69396 | 36963 ft | 428 kts | 275° |
| 2026-05-06 04:10 | 37.75810 | -4.76864 | 36970 ft | 428 kts | 275° |
| 2026-05-06 04:11 | 37.76605 | -4.84331 | 36966 ft | 429 kts | 276° |
| 2026-05-06 04:11 | 37.77534 | -4.91789 | 36969 ft | 430 kts | 276° |
| 2026-05-06 04:12 | 37.78474 | -4.99256 | 36962 ft | 430 kts | 276° |
| 2026-05-06 04:12 | 37.79393 | -5.06726 | 36964 ft | 430 kts | 276° |
| 2026-05-06 04:13 | 37.80298 | -5.14202 | 36969 ft | 430 kts | 276° |
| 2026-05-06 04:13 | 37.81195 | -5.21678 | 36968 ft | 430 kts | 276° |
| 2026-05-06 04:14 | 37.82086 | -5.29142 | 36967 ft | 430 kts | 276° |
| 2026-05-06 04:14 | 37.82974 | -5.36616 | 36961 ft | 430 kts | 276° |
| 2026-05-06 04:15 | 37.83828 | -5.43835 | 36978 ft | 430 kts | 276° |
| 2026-05-06 04:15 | 37.84707 | -5.51311 | 36983 ft | 430 kts | 276° |
| 2026-05-06 04:16 | 37.85580 | -5.58779 | 36970 ft | 429 kts | 276° |
| 2026-05-06 04:16 | 37.86446 | -5.66253 | 36975 ft | 430 kts | 276° |
| 2026-05-06 04:17 | 37.87299 | -5.73649 | 36988 ft | 430 kts | 276° |
| 2026-05-06 04:17 | 37.88160 | -5.81136 | 36989 ft | 430 kts | 276° |
| 2026-05-06 04:18 | 37.89012 | -5.88589 | 36994 ft | 430 kts | 276° |
| 2026-05-06 04:18 | 37.89863 | -5.96091 | 36993 ft | 431 kts | 276° |
| 2026-05-06 04:19 | 37.90685 | -6.03372 | 36996 ft | 431 kts | 276° |
| 2026-05-06 04:19 | 37.91528 | -6.10888 | 36998 ft | 431 kts | 275° |
| 2026-05-06 04:20 | 37.92367 | -6.18393 | 36999 ft | 431 kts | 275° |
| 2026-05-06 04:20 | 37.93201 | -6.25919 | 37008 ft | 431 kts | 275° |
| 2026-05-06 04:21 | 37.94030 | -6.33433 | 37013 ft | 431 kts | 275° |
| 2026-05-06 04:21 | 37.94855 | -6.40956 | 37013 ft | 431 kts | 275° |
| 2026-05-06 04:22 | 37.95649 | -6.48256 | 37017 ft | 431 kts | 275° |
| 2026-05-06 04:23 | 37.96872 | -6.59553 | 37013 ft | 432 kts | 275° |
| 2026-05-06 04:23 | 37.97680 | -6.67092 | 37016 ft | 432 kts | 275° |
| 2026-05-06 04:24 | 37.98484 | -6.74630 | 37013 ft | 431 kts | 275° |
| 2026-05-06 04:24 | 37.99246 | -6.81824 | 37013 ft | 431 kts | 275° |
| 2026-05-06 04:25 | 38.00042 | -6.89373 | 37027 ft | 432 kts | 275° |
| 2026-05-06 04:25 | 38.00832 | -6.96915 | 37028 ft | 433 kts | 275° |
| 2026-05-06 04:26 | 38.01621 | -7.04501 | 37022 ft | 434 kts | 275° |
| 2026-05-06 04:26 | 38.02372 | -7.11674 | 37026 ft | 435 kts | 276° |
| 2026-05-06 04:27 | 38.03383 | -7.19245 | 37023 ft | 435 kts | 277° |
| 2026-05-06 04:27 | 38.04399 | -7.26816 | 37021 ft | 435 kts | 277° |
| 2026-05-06 04:28 | 38.05391 | -7.34376 | 37032 ft | 436 kts | 277° |
| 2026-05-06 04:28 | 38.06383 | -7.41962 | 37029 ft | 436 kts | 277° |
| 2026-05-06 04:29 | 38.07369 | -7.49552 | 37030 ft | 436 kts | 277° |
| 2026-05-06 04:29 | 38.08354 | -7.57154 | 37025 ft | 436 kts | 277° |
| 2026-05-06 04:30 | 38.09328 | -7.64757 | 37032 ft | 437 kts | 277° |
| 2026-05-06 04:30 | 38.10282 | -7.72389 | 37024 ft | 438 kts | 276° |
| 2026-05-06 04:31 | 38.11231 | -7.80025 | 37024 ft | 438 kts | 276° |
| 2026-05-06 04:31 | 38.12178 | -7.87637 | 37021 ft | 439 kts | 276° |
| 2026-05-06 04:32 | 38.13364 | -7.95297 | 37018 ft | 441 kts | 284° |
| 2026-05-06 04:32 | 38.14647 | -8.02855 | 37030 ft | 436 kts | 274° |
| 2026-05-06 04:33 | 38.14786 | -8.10487 | 37024 ft | 436 kts | 268° |
| 2026-05-06 04:33 | 38.14816 | -8.18192 | 37032 ft | 437 kts | 269° |
| 2026-05-06 04:34 | 38.14872 | -8.25914 | 37032 ft | 437 kts | 269° |
| 2026-05-06 04:34 | 38.14926 | -8.33622 | 37041 ft | 437 kts | 269° |
| 2026-05-06 04:35 | 38.14971 | -8.41349 | 37042 ft | 438 kts | 269° |
| 2026-05-06 04:35 | 38.15008 | -8.48926 | 37047 ft | 439 kts | 269° |
| 2026-05-06 04:36 | 38.15040 | -8.56686 | 37047 ft | 439 kts | 269° |
| 2026-05-06 04:36 | 38.15069 | -8.64421 | 37049 ft | 439 kts | 269° |
| 2026-05-06 04:37 | 38.15092 | -8.72177 | 37050 ft | 439 kts | 269° |
| 2026-05-06 04:37 | 38.15107 | -8.78790 | 37047 ft | 440 kts | 269° |
| 2026-05-06 04:38 | 38.15115 | -8.83440 | 37051 ft | 440 kts | 269° |
| 2026-05-06 04:38 | 38.15120 | -8.87432 | 37059 ft | 440 kts | 269° |
| 2026-05-06 04:39 | 38.15116 | -8.90764 | 37108 ft | 439 kts | 268° |
| 2026-05-06 04:39 | 38.15064 | -8.92800 | 37211 ft | 429 kts | 260° |
| 2026-05-06 04:39 | 38.14650 | -8.95285 | 37151 ft | 426 kts | 257° |
| 2026-05-06 04:40 | 38.14249 | -9.01822 | 37072 ft | 434 kts | 271° |
| 2026-05-06 04:40 | 38.14509 | -9.06390 | 37063 ft | 439 kts | 273° |
| 2026-05-06 04:41 | 38.14698 | -9.09612 | 37062 ft | 435 kts | 266° |
| 2026-05-06 04:41 | 38.14023 | -9.13373 | 36627 ft | 431 kts | 250° |
| 2026-05-06 04:41 | 38.13179 | -9.16779 | 36541 ft | 433 kts | 261° |
| 2026-05-06 04:42 | 38.13053 | -9.19192 | 36712 ft | 433 kts | 271° |
| 2026-05-06 04:42 | 38.13503 | -9.23677 | 36902 ft | 434 kts | 278° |
| 2026-05-06 04:43 | 38.13977 | -9.26917 | 36961 ft | 435 kts | 278° |
| 2026-05-06 04:43 | 38.14276 | -9.30626 | 37110 ft | 423 kts | 266° |
| 2026-05-06 04:44 | 38.14177 | -9.36650 | 37053 ft | 432 kts | 270° |
| 2026-05-06 04:44 | 38.14357 | -9.41218 | 36958 ft | 438 kts | 272° |
| 2026-05-06 04:45 | 38.14763 | -9.48228 | 37038 ft | 443 kts | 272° |
| 2026-05-06 04:45 | 38.14966 | -9.54907 | 37059 ft | 448 kts | 270° |
| 2026-05-06 04:46 | 38.15007 | -9.61672 | 37066 ft | 452 kts | 269° |
| 2026-05-06 04:46 | 38.14974 | -9.68609 | 37050 ft | 449 kts | 268° |
| 2026-05-06 04:47 | 38.14928 | -9.74682 | 37059 ft | 444 kts | 268° |
| 2026-05-06 04:47 | 38.14884 | -9.80126 | 37066 ft | 444 kts | 268° |
| 2026-05-06 04:48 | 38.14833 | -9.86387 | 37078 ft | 445 kts | 269° |
| 2026-05-06 04:48 | 38.14789 | -9.92053 | 37068 ft | 447 kts | 269° |
| 2026-05-06 04:49 | 38.14737 | -9.97822 | 37067 ft | 448 kts | 269° |
| 2026-05-06 04:49 | 38.14772 | -10.01484 | 37140 ft | 441 kts | 274° |
| 2026-05-06 04:50 | 38.14912 | -10.08769 | 37068 ft | 448 kts | 268° |
| 2026-05-06 04:50 | 38.14721 | -10.16248 | 37074 ft | 452 kts | 268° |
| 2026-05-06 04:51 | 38.14552 | -10.23383 | 37068 ft | 454 kts | 268° |
| 2026-05-06 04:51 | 38.14489 | -10.26842 | 37038 ft | 455 kts | 268° |
| 2026-05-06 04:52 | 38.14408 | -10.30302 | 36875 ft | 456 kts | 267° |
| 2026-05-06 04:52 | 38.14369 | -10.32082 | 36742 ft | 455 kts | 268° |
| 2026-05-06 04:52 | 38.14295 | -10.35335 | 36107 ft | 452 kts | 269° |
| 2026-05-06 04:52 | 38.14270 | -10.37184 | 36246 ft | 452 kts | 269° |
| 2026-05-06 04:53 | 38.14246 | -10.39597 | 36336 ft | 452 kts | 269° |
| 2026-05-06 04:53 | 38.14227 | -10.42514 | 36516 ft | 447 kts | 268° |
| 2026-05-06 04:53 | 38.14204 | -10.45397 | 36779 ft | 439 kts | 268° |
| 2026-05-06 04:53 | 38.14186 | -10.47994 | 36925 ft | 434 kts | 268° |
| 2026-05-06 04:54 | 38.14167 | -10.50933 | 37010 ft | 432 kts | 268° |
| 2026-05-06 04:54 | 38.14119 | -10.56273 | 37025 ft | 431 kts | 268° |
| 2026-05-06 04:55 | 38.14037 | -10.63415 | 37043 ft | 431 kts | 268° |
| 2026-05-06 04:55 | 38.13937 | -10.70841 | 42267 ft | 435 kts | 267° |
| 2026-05-06 04:55 | 38.13888 | -10.74337 | 36933 ft | 418 kts | 268° |
| 2026-05-06 04:56 | 38.13838 | -10.77740 | 36956 ft | 417 kts | 268° |
| 2026-05-06 04:56 | 38.13727 | -10.84901 | 37047 ft | 424 kts | 268° |
| 2026-05-06 04:57 | 38.13606 | -10.92466 | 37054 ft | 433 kts | 268° |
| 2026-05-06 04:57 | 38.13483 | -11.00034 | 37073 ft | 439 kts | 268° |
| 2026-05-06 04:57 | 38.13423 | -11.03569 | 37214 ft | 440 kts | 268° |
| 2026-05-06 04:58 | 38.13357 | -11.07336 | 37412 ft | 439 kts | 268° |
| 2026-05-06 04:58 | 38.13289 | -11.11213 | 37601 ft | 439 kts | 268° |
| 2026-05-06 04:58 | 38.13221 | -11.15061 | 37795 ft | 439 kts | 268° |
| 2026-05-06 04:58 | 38.13151 | -11.18901 | 37920 ft | 439 kts | 268° |
| 2026-05-06 04:59 | 38.13083 | -11.22540 | 37972 ft | 441 kts | 268° |
| 2026-05-06 04:59 | 38.12936 | -11.30352 | 38037 ft | 444 kts | 268° |
| 2026-05-06 05:00 | 38.12783 | -11.38203 | 38049 ft | 445 kts | 268° |
| 2026-05-06 05:00 | 38.12627 | -11.45914 | 38049 ft | 447 kts | 268° |
| 2026-05-06 05:01 | 38.12470 | -11.53365 | 38046 ft | 447 kts | 268° |
| 2026-05-06 05:01 | 38.12305 | -11.61082 | 38044 ft | 447 kts | 268° |
| 2026-05-06 05:02 | 38.12129 | -11.68818 | 38047 ft | 446 kts | 268° |
| 2026-05-06 05:02 | 38.11952 | -11.76638 | 38054 ft | 445 kts | 268° |
| 2026-05-06 05:03 | 38.11772 | -11.84424 | 38055 ft | 445 kts | 268° |
| 2026-05-06 05:03 | 38.11587 | -11.91993 | 38055 ft | 444 kts | 268° |
| 2026-05-06 05:04 | 38.11396 | -11.99594 | 38055 ft | 444 kts | 268° |
| 2026-05-06 05:04 | 38.11207 | -12.07011 | 38056 ft | 443 kts | 268° |
| 2026-05-06 05:05 | 38.11010 | -12.14559 | 38056 ft | 443 kts | 268° |
| 2026-05-06 05:05 | 38.10809 | -12.22067 | 38051 ft | 443 kts | 268° |
| 2026-05-06 05:06 | 38.10602 | -12.29619 | 38052 ft | 443 kts | 268° |
| 2026-05-06 05:06 | 38.10394 | -12.37074 | 38055 ft | 443 kts | 268° |
| 2026-05-06 05:07 | 38.10173 | -12.44693 | 38053 ft | 444 kts | 268° |
| 2026-05-06 05:07 | 38.09951 | -12.52315 | 38047 ft | 445 kts | 268° |
| 2026-05-06 05:08 | 38.09728 | -12.59818 | 38054 ft | 445 kts | 268° |
| 2026-05-06 05:08 | 38.09495 | -12.67404 | 38053 ft | 445 kts | 268° |
| 2026-05-06 05:09 | 38.09255 | -12.75075 | 38055 ft | 446 kts | 268° |
| 2026-05-06 05:09 | 38.09013 | -12.82668 | 38056 ft | 446 kts | 268° |
| 2026-05-06 05:10 | 38.08765 | -12.90278 | 38055 ft | 447 kts | 268° |
| 2026-05-06 05:10 | 38.08510 | -12.97964 | 38056 ft | 448 kts | 268° |
| 2026-05-06 05:11 | 38.08247 | -13.05752 | 38057 ft | 448 kts | 268° |
| 2026-05-06 05:11 | 38.07979 | -13.13509 | 38055 ft | 449 kts | 268° |
| 2026-05-06 05:12 | 38.07705 | -13.21233 | 38052 ft | 449 kts | 268° |
| 2026-05-06 05:12 | 38.07431 | -13.28919 | 38055 ft | 450 kts | 268° |
| 2026-05-06 05:13 | 38.07147 | -13.36698 | 38058 ft | 450 kts | 268° |
| 2026-05-06 05:13 | 38.06858 | -13.44500 | 38065 ft | 451 kts | 268° |
| 2026-05-06 05:14 | 38.06568 | -13.52167 | 38064 ft | 451 kts | 268° |
| 2026-05-06 05:14 | 38.06267 | -13.60021 | 38066 ft | 452 kts | 268° |
| 2026-05-06 05:15 | 38.05960 | -13.67836 | 38065 ft | 452 kts | 268° |
| 2026-05-06 05:15 | 38.05646 | -13.75719 | 38065 ft | 453 kts | 268° |
| 2026-05-06 05:16 | 38.05328 | -13.83566 | 38057 ft | 453 kts | 268° |
| 2026-05-06 05:16 | 38.05005 | -13.91407 | 38055 ft | 453 kts | 268° |
| 2026-05-06 05:17 | 38.04673 | -13.99315 | 38054 ft | 453 kts | 268° |
| 2026-05-06 05:17 | 38.04339 | -14.07166 | 38055 ft | 453 kts | 268° |
| 2026-05-06 05:18 | 38.04002 | -14.15000 | 38057 ft | 452 kts | 268° |
| 2026-05-06 05:18 | 38.03661 | -14.22783 | 38056 ft | 452 kts | 268° |
| 2026-05-06 05:19 | 38.03312 | -14.30660 | 38054 ft | 452 kts | 268° |
| 2026-05-06 05:19 | 38.02959 | -14.38472 | 38065 ft | 452 kts | 268° |
| 2026-05-06 05:20 | 38.02600 | -14.46294 | 38065 ft | 452 kts | 268° |
| 2026-05-06 05:20 | 38.02234 | -14.54179 | 38065 ft | 452 kts | 268° |
| 2026-05-06 05:21 | 38.01863 | -14.62057 | 38063 ft | 452 kts | 268° |
| 2026-05-06 05:21 | 38.01487 | -14.69886 | 38066 ft | 452 kts | 268° |
| 2026-05-06 05:22 | 38.01109 | -14.77714 | 38062 ft | 453 kts | 269° |
| 2026-05-06 05:22 | 38.00725 | -14.85514 | 38066 ft | 453 kts | 269° |
| 2026-05-06 05:23 | 38.00333 | -14.93396 | 38074 ft | 454 kts | 269° |
| 2026-05-06 05:23 | 37.99975 | -15.05329 | 38065 ft | 453 kts | 273° |
| 2026-05-06 05:24 | 38.00138 | -15.13313 | 38075 ft | 453 kts | 275° |
| 2026-05-06 05:24 | 38.00316 | -15.21301 | 38073 ft | 454 kts | 275° |
| 2026-05-06 05:25 | 38.00458 | -15.29303 | 38076 ft | 454 kts | 275° |
| 2026-05-06 05:25 | 38.00575 | -15.37307 | 38072 ft | 454 kts | 275° |
| 2026-05-06 05:26 | 38.00680 | -15.45313 | 38080 ft | 454 kts | 275° |
| 2026-05-06 05:26 | 38.00780 | -15.53321 | 38083 ft | 454 kts | 275° |
| 2026-05-06 05:27 | 38.00877 | -15.61332 | 38083 ft | 455 kts | 275° |
| 2026-05-06 05:27 | 38.00950 | -15.67534 | 38081 ft | 456 kts | 275° |
| 2026-05-06 05:28 | 38.01035 | -15.75571 | 38084 ft | 456 kts | 275° |
| 2026-05-06 05:28 | 38.01118 | -15.83606 | 38080 ft | 456 kts | 275° |
| 2026-05-06 05:29 | 38.01196 | -15.91626 | 38084 ft | 455 kts | 275° |
| 2026-05-06 05:29 | 38.01267 | -15.99645 | 38094 ft | 455 kts | 275° |
| 2026-05-06 05:30 | 38.01331 | -16.07673 | 38094 ft | 455 kts | 275° |
| 2026-05-06 05:30 | 38.01391 | -16.15709 | 38090 ft | 455 kts | 275° |
| 2026-05-06 05:31 | 38.01445 | -16.23691 | 38089 ft | 455 kts | 275° |
| 2026-05-06 05:31 | 38.01494 | -16.31725 | 38092 ft | 455 kts | 275° |
| 2026-05-06 05:32 | 38.01538 | -16.39752 | 38099 ft | 455 kts | 275° |
| 2026-05-06 05:32 | 38.01576 | -16.47779 | 38115 ft | 455 kts | 275° |
| 2026-05-06 05:33 | 38.01609 | -16.55774 | 38121 ft | 455 kts | 275° |
| 2026-05-06 05:33 | 38.01637 | -16.63800 | 38121 ft | 455 kts | 275° |
| 2026-05-06 05:34 | 38.01658 | -16.71820 | 38119 ft | 455 kts | 275° |
| 2026-05-06 05:34 | 38.01675 | -16.79761 | 38121 ft | 454 kts | 275° |
| 2026-05-06 05:35 | 38.01686 | -16.87763 | 38159 ft | 453 kts | 275° |
| 2026-05-06 05:35 | 38.01692 | -16.95750 | 38162 ft | 453 kts | 275° |
| 2026-05-06 05:36 | 38.01692 | -17.03724 | 38172 ft | 453 kts | 274° |
| 2026-05-06 05:36 | 38.01686 | -17.11713 | 38177 ft | 453 kts | 275° |
| 2026-05-06 05:37 | 38.01676 | -17.19706 | 38174 ft | 453 kts | 275° |
| 2026-05-06 05:37 | 38.01661 | -17.27694 | 38174 ft | 453 kts | 274° |
| 2026-05-06 05:38 | 38.01638 | -17.35690 | 38178 ft | 453 kts | 275° |
| 2026-05-06 05:38 | 38.01611 | -17.43675 | 38172 ft | 453 kts | 275° |
| 2026-05-06 05:39 | 38.01579 | -17.51612 | 38176 ft | 453 kts | 274° |
| 2026-05-06 05:39 | 38.01541 | -17.59593 | 38182 ft | 452 kts | 275° |
| 2026-05-06 05:40 | 38.01499 | -17.67565 | 38182 ft | 452 kts | 274° |
| 2026-05-06 05:40 | 38.01451 | -17.75538 | 38186 ft | 452 kts | 274° |
| 2026-05-06 05:41 | 38.01397 | -17.83518 | 38185 ft | 453 kts | 274° |
| 2026-05-06 05:41 | 38.01338 | -17.91513 | 38185 ft | 453 kts | 274° |
| 2026-05-06 05:42 | 38.01274 | -17.99506 | 38193 ft | 453 kts | 274° |
| 2026-05-06 05:42 | 38.01204 | -18.07502 | 38194 ft | 453 kts | 274° |
| 2026-05-06 05:43 | 38.01128 | -18.15499 | 38194 ft | 454 kts | 274° |
| 2026-05-06 05:43 | 38.01047 | -18.23496 | 38195 ft | 454 kts | 274° |
| 2026-05-06 05:44 | 38.00960 | -18.31494 | 38201 ft | 453 kts | 274° |
| 2026-05-06 05:44 | 38.00870 | -18.39485 | 38204 ft | 453 kts | 274° |
| 2026-05-06 05:45 | 38.00772 | -18.47470 | 38204 ft | 453 kts | 274° |
| 2026-05-06 05:45 | 38.00669 | -18.55451 | 38203 ft | 452 kts | 274° |
| 2026-05-06 05:46 | 38.00563 | -18.63426 | 38214 ft | 452 kts | 275° |
| 2026-05-06 05:46 | 38.00449 | -18.71334 | 38214 ft | 451 kts | 275° |
| 2026-05-06 05:47 | 38.00332 | -18.79284 | 38214 ft | 451 kts | 275° |
| 2026-05-06 05:47 | 38.00208 | -18.87221 | 38219 ft | 450 kts | 275° |
| 2026-05-06 05:48 | 38.00082 | -18.95142 | 38224 ft | 449 kts | 275° |
| 2026-05-06 05:48 | 37.99598 | -19.03078 | 38210 ft | 457 kts | 266° |
| 2026-05-06 05:49 | 37.98329 | -19.11004 | 38224 ft | 459 kts | 265° |
| 2026-05-06 05:49 | 37.97045 | -19.18947 | 38232 ft | 460 kts | 266° |
| 2026-05-06 05:50 | 37.95774 | -19.26898 | 38231 ft | 461 kts | 266° |
| 2026-05-06 05:50 | 37.94508 | -19.34874 | 38224 ft | 462 kts | 266° |
| 2026-05-06 05:51 | 37.93240 | -19.42855 | 38233 ft | 462 kts | 266° |
| 2026-05-06 05:51 | 37.91964 | -19.50846 | 38237 ft | 463 kts | 266° |
| 2026-05-06 05:52 | 37.90684 | -19.58824 | 38243 ft | 462 kts | 266° |
| 2026-05-06 05:52 | 37.89398 | -19.66791 | 38231 ft | 462 kts | 266° |
| 2026-05-06 05:53 | 37.88106 | -19.74756 | 38240 ft | 461 kts | 267° |
| 2026-05-06 05:53 | 37.86811 | -19.82694 | 38239 ft | 461 kts | 267° |
| 2026-05-06 05:54 | 37.85516 | -19.90630 | 38242 ft | 460 kts | 267° |
| 2026-05-06 05:54 | 37.84213 | -19.98545 | 38249 ft | 459 kts | 267° |
| 2026-05-06 05:55 | 37.82915 | -20.06404 | 38251 ft | 459 kts | 267° |
| 2026-05-06 05:55 | 37.81606 | -20.14310 | 38250 ft | 460 kts | 266° |
| 2026-05-06 05:56 | 37.80291 | -20.22219 | 38258 ft | 460 kts | 266° |
| 2026-05-06 05:56 | 37.78968 | -20.30133 | 38259 ft | 460 kts | 266° |
| 2026-05-06 05:57 | 37.77638 | -20.38045 | 38258 ft | 460 kts | 266° |
| 2026-05-06 05:57 | 37.76305 | -20.45948 | 38259 ft | 460 kts | 266° |
| 2026-05-06 05:58 | 37.74965 | -20.53857 | 38261 ft | 460 kts | 266° |
| 2026-05-06 05:58 | 37.73621 | -20.61765 | 38266 ft | 461 kts | 266° |
| 2026-05-06 05:59 | 37.72269 | -20.69679 | 38268 ft | 461 kts | 266° |
| 2026-05-06 05:59 | 37.70913 | -20.77589 | 38267 ft | 461 kts | 266° |
| 2026-05-06 06:00 | 37.69547 | -20.85501 | 38270 ft | 461 kts | 266° |
| 2026-05-06 06:00 | 37.68179 | -20.93404 | 38272 ft | 461 kts | 266° |
| 2026-05-06 06:01 | 37.66817 | -21.01246 | 38281 ft | 460 kts | 266° |
| 2026-05-06 06:01 | 37.65441 | -21.09133 | 38278 ft | 460 kts | 266° |
| 2026-05-06 06:02 | 37.64063 | -21.17001 | 38276 ft | 459 kts | 266° |
| 2026-05-06 06:02 | 37.62681 | -21.24856 | 38279 ft | 458 kts | 266° |
| 2026-05-06 06:03 | 37.61292 | -21.32700 | 38280 ft | 458 kts | 266° |
| 2026-05-06 06:03 | 37.59905 | -21.40530 | 38283 ft | 457 kts | 266° |
| 2026-05-06 06:04 | 37.58514 | -21.48348 | 38282 ft | 457 kts | 266° |
| 2026-05-06 06:04 | 37.57116 | -21.56148 | 38287 ft | 456 kts | 266° |
| 2026-05-06 06:05 | 37.55717 | -21.63940 | 38282 ft | 456 kts | 266° |
| 2026-05-06 06:05 | 37.54315 | -21.71723 | 38286 ft | 455 kts | 266° |
| 2026-05-06 06:06 | 37.52906 | -21.79488 | 38301 ft | 453 kts | 266° |
| 2026-05-06 06:06 | 37.51503 | -21.87205 | 38290 ft | 451 kts | 266° |
| 2026-05-06 06:07 | 37.50102 | -21.94879 | 38292 ft | 448 kts | 266° |
| 2026-05-06 06:07 | 37.48704 | -22.02516 | 38297 ft | 447 kts | 266° |
| 2026-05-06 06:08 | 37.47304 | -22.10138 | 38294 ft | 447 kts | 266° |
| 2026-05-06 06:08 | 37.45899 | -22.17764 | 38297 ft | 447 kts | 266° |
| 2026-05-06 06:09 | 37.44496 | -22.25346 | 38296 ft | 448 kts | 266° |
| 2026-05-06 06:09 | 37.43065 | -22.33030 | 38298 ft | 448 kts | 266° |
| 2026-05-06 06:10 | 37.41648 | -22.40621 | 38305 ft | 449 kts | 265° |
| 2026-05-06 06:10 | 37.40213 | -22.48268 | 38304 ft | 449 kts | 265° |
| 2026-05-06 06:11 | 37.38773 | -22.55922 | 38305 ft | 450 kts | 265° |
| 2026-05-06 06:11 | 37.37328 | -22.63573 | 38305 ft | 450 kts | 265° |
| 2026-05-06 06:12 | 37.35877 | -22.71227 | 38303 ft | 450 kts | 265° |
| 2026-05-06 06:12 | 37.34420 | -22.78874 | 38305 ft | 450 kts | 265° |
| 2026-05-06 06:13 | 37.32963 | -22.86508 | 38301 ft | 449 kts | 265° |
| 2026-05-06 06:13 | 37.31502 | -22.94130 | 38304 ft | 448 kts | 265° |
| 2026-05-06 06:14 | 37.30037 | -23.01735 | 38305 ft | 448 kts | 265° |
| 2026-05-06 06:14 | 37.28571 | -23.09327 | 38314 ft | 447 kts | 265° |
| 2026-05-06 06:15 | 37.27110 | -23.16862 | 38312 ft | 447 kts | 265° |
| 2026-05-06 06:15 | 37.25637 | -23.24442 | 38313 ft | 447 kts | 265° |
| 2026-05-06 06:16 | 37.24158 | -23.32016 | 38316 ft | 447 kts | 265° |
| 2026-05-06 06:16 | 37.22805 | -23.39591 | 38312 ft | 442 kts | 268° |
| 2026-05-06 06:17 | 37.21730 | -23.47175 | 38315 ft | 441 kts | 269° |
| 2026-05-06 06:17 | 37.20667 | -23.54762 | 38315 ft | 442 kts | 268° |
| 2026-05-06 06:18 | 37.19588 | -23.62342 | 38312 ft | 441 kts | 268° |
| 2026-05-06 06:18 | 37.18496 | -23.69911 | 38314 ft | 441 kts | 268° |
| 2026-05-06 06:19 | 37.17585 | -23.76196 | 38312 ft | 441 kts | 268° |
| 2026-05-06 06:19 | 37.16297 | -23.85042 | 38313 ft | 441 kts | 268° |
| 2026-05-06 06:20 | 37.15375 | -23.91330 | 38314 ft | 441 kts | 268° |
| 2026-05-06 06:20 | 37.14266 | -23.98889 | 38313 ft | 441 kts | 268° |
| 2026-05-06 06:21 | 37.13149 | -24.06448 | 38316 ft | 441 kts | 268° |
| 2026-05-06 06:21 | 37.12031 | -24.13984 | 38311 ft | 440 kts | 268° |
| 2026-05-06 06:22 | 37.10907 | -24.21503 | 38321 ft | 438 kts | 268° |
| 2026-05-06 06:22 | 37.09784 | -24.29003 | 38323 ft | 438 kts | 268° |
| 2026-05-06 06:23 | 37.08658 | -24.36501 | 38322 ft | 438 kts | 268° |
| 2026-05-06 06:23 | 37.07526 | -24.44004 | 38323 ft | 438 kts | 268° |
| 2026-05-06 06:24 | 37.06396 | -24.51454 | 38322 ft | 439 kts | 267° |
| 2026-05-06 06:24 | 37.05252 | -24.58960 | 38322 ft | 439 kts | 267° |
| 2026-05-06 06:25 | 37.04102 | -24.66469 | 38324 ft | 439 kts | 267° |
| 2026-05-06 06:26 | 37.02367 | -24.77731 | 38321 ft | 439 kts | 267° |
| 2026-05-06 06:26 | 37.01207 | -24.85230 | 38323 ft | 439 kts | 267° |
| 2026-05-06 06:27 | 37.00043 | -24.92727 | 38321 ft | 439 kts | 267° |
| 2026-05-06 06:27 | 36.98873 | -25.00221 | 38323 ft | 439 kts | 267° |
| 2026-05-06 06:28 | 36.97701 | -25.07702 | 38322 ft | 438 kts | 266° |
| 2026-05-06 06:28 | 36.96521 | -25.15184 | 38321 ft | 439 kts | 266° |
| 2026-05-06 06:29 | 36.94813 | -25.22584 | 38326 ft | 445 kts | 260° |
| 2026-05-06 06:29 | 36.92878 | -25.29937 | 38321 ft | 445 kts | 260° |
| 2026-05-06 06:30 | 36.90953 | -25.37288 | 38322 ft | 445 kts | 260° |
| 2026-05-06 06:30 | 36.89040 | -25.44636 | 38322 ft | 445 kts | 260° |
| 2026-05-06 06:31 | 36.87128 | -25.51979 | 38322 ft | 445 kts | 260° |
| 2026-05-06 06:31 | 36.85211 | -25.59315 | 38325 ft | 444 kts | 260° |
| 2026-05-06 06:32 | 36.83304 | -25.66600 | 38321 ft | 444 kts | 260° |
| 2026-05-06 06:32 | 36.81381 | -25.73922 | 38323 ft | 444 kts | 260° |